Observation data for Romero 11 SSW on 08/14/2019      Previous  Date  Next       Current Mesonet Observations  Soil Data  Daily Summary Page  Observations in Plain Language
KBR1 140500Z 10006KT 23/17 A3019 RMK A01 T02330167  RH  066%=      5-min Rain = 0
KBR1 140501Z 10007KT 24/17 A3019 RMK A01 T02350168  RH  066%=      5-min Rain = 0
KBR1 140502Z 10007KT 24/17 A302 RMK A01 T02360168  RH  065%=      5-min Rain = 0
KBR1 140503Z 11007KT 24/17 A302 RMK A01 T02380168  RH  065%=      5-min Rain = 0
KBR1 140504Z 11006KT 24/17 A302 RMK A01 T02390168  RH  064%=      5-min Rain = 0
KBR1 140505Z 10006KT 24/17 A302 RMK A01 T02390168  RH  064%=      5-min Rain = 0
KBR1 140506Z 10006KT 24/17 A302 RMK A01 T02390168  RH  064%=      5-min Rain = 0
KBR1 140507Z 11006KT 24/17 A302 RMK A01 T02390168  RH  064%=      5-min Rain = 0
KBR1 140508Z 11006KT 24/17 A302 RMK A01 T02380168  RH  065%=      5-min Rain = 0
KBR1 140509Z 11006KT 24/17 A302 RMK A01 T02380168  RH  065%=      5-min Rain = 0
KBR1 140510Z 11006KT 24/17 A302 RMK A01 T02370168  RH  065%=      5-min Rain = 0
KBR1 140521Z 11007KT 24/17 A3019 RMK A01 T02380169  RH  065%=      5-min Rain = 0
KBR1 140522Z 11007KT 24/17 A302 RMK A01 T02380169  RH  065%=      5-min Rain = 0
KBR1 140523Z 11007KT 24/17 A302 RMK A01 T02390170  RH  065%=      5-min Rain = 0
KBR1 140524Z 11008KT 24/17 A302 RMK A01 T02390170  RH  065%=      5-min Rain = 0
KBR1 140525Z 11007KT 24/17 A302 RMK A01 T02390170  RH  065%=      5-min Rain = 0
KBR1 140526Z 11008KT 24/17 A302 RMK A01 T02390170  RH  065%=      5-min Rain = 0
KBR1 140527Z 11007KT 24/17 A302 RMK A01 T02400170  RH  065%=      5-min Rain = 0
KBR1 140528Z 11007KT 24/17 A302 RMK A01 T02400170  RH  065%=      5-min Rain = 0
KBR1 140529Z 11007KT 24/17 A302 RMK A01 T02390170  RH  065%=      5-min Rain = 0
KBR1 140530Z 11006KT 24/17 A302 RMK A01 T02400171  RH  065%=      5-min Rain = 0
KBR1 140531Z 10007KT 24/17 A302 RMK A01 T02390171  RH  066%=      5-min Rain = 0
KBR1 140532Z 10007KT 24/17 A302 RMK A01 T02390171  RH  066%=      5-min Rain = 0
KBR1 140533Z 10007KT 24/17 A302 RMK A01 T02380171  RH  066%=      5-min Rain = 0
KBR1 140534Z 10007KT 24/17 A302 RMK A01 T02380171  RH  066%=      5-min Rain = 0
KBR1 140535Z 10007KT 24/17 A3021 RMK A01 T02370171  RH  067%=      5-min Rain = 0
KBR1 140536Z 09007KT 24/17 A3021 RMK A01 T02360172  RH  067%=      5-min Rain = 0
KBR1 140537Z 10008KT 24/17 A3021 RMK A01 T02360171  RH  067%=      5-min Rain = 0
KBR1 140538Z 09008KT 24/17 A3021 RMK A01 T02360171  RH  067%=      5-min Rain = 0
KBR1 140539Z 09007KT 24/17 A3021 RMK A01 T02370172  RH  067%=      5-min Rain = 0
KBR1 140540Z 09007KT 24/17 A3021 RMK A01 T02370172  RH  067%=      5-min Rain = 0
KBR1 140541Z 08007KT 24/17 A3021 RMK A01 T02370173  RH  067%=      5-min Rain = 0
KBR1 140542Z 08008KT 24/17 A3022 RMK A01 T02370173  RH  068%=      5-min Rain = 0
KBR1 140543Z 07009KT 24/17 A3022 RMK A01 T02360173  RH  068%=      5-min Rain = 0
KBR1 140544Z 07009KT 24/17 A3022 RMK A01 T02350172  RH  068%=      5-min Rain = 0
KBR1 140545Z 07010KT 24/17 A3022 RMK A01 T02350172  RH  067%=      5-min Rain = 0
KBR1 140546Z 06010KT 24/17 A3023 RMK A01 T02360171  RH  067%=      5-min Rain = 0
KBR1 140547Z 06011KT 24/17 A3023 RMK A01 T02360171  RH  067%=      5-min Rain = 0
KBR1 140548Z 06012KT 24/17 A3023 RMK A01 T02360172  RH  067%=      5-min Rain = 0
KBR1 140549Z 06012KT 24/17 A3023 RMK A01 T02360173  RH  068%=      5-min Rain = 0
KBR1 140550Z 07012KT 24/17 A3024 RMK A01 T02350173  RH  068%=      5-min Rain = 0
KBR1 140551Z 07012KT 24/17 A3024 RMK A01 T02360173  RH  068%=      5-min Rain = 0
KBR1 140552Z 06012KT 24/17 A3024 RMK A01 T02370174  RH  068%=      5-min Rain = 0
KBR1 140553Z 06012KT 24/17 A3024 RMK A01 T02380174  RH  067%=      5-min Rain = 0
KBR1 140554Z 06013KT 24/17 A3024 RMK A01 T02390173  RH  067%=      5-min Rain = 0
KBR1 140555Z 06013KT 24/17 A3024 RMK A01 T02400173  RH  066%=      5-min Rain = 0
KBR1 140556Z 06012KT 24/17 A3024 RMK A01 T02400172  RH  066%=      5-min Rain = 0
KBR1 140557Z 06011KT 24/17 A3024 RMK A01 T02400173  RH  066%=      5-min Rain = 0
KBR1 140558Z 06011KT 24/17 A3024 RMK A01 T02400173  RH  066%=      5-min Rain = 0
KBR1 140559Z 06010KT 24/17 A3024 RMK A01 T02390173  RH  067%=      5-min Rain = 0
KBR1 140600Z 06011KT 24/17 A3024 RMK A01 T02370172  RH  067%=      5-min Rain = 0
KBR1 140601Z 06010KT 24/17 A3024 RMK A01 T02370172  RH  067%=      5-min Rain = 0
KBR1 140602Z 07009KT 24/17 A3024 RMK A01 T02370172  RH  067%=      5-min Rain = 0
KBR1 140603Z 07009KT 24/17 A3024 RMK A01 T02370172  RH  067%=      5-min Rain = 0
KBR1 140604Z 07009KT 24/17 A3024 RMK A01 T02370173  RH  067%=      5-min Rain = 0
KBR1 140605Z 08008KT 24/17 A3024 RMK A01 T02370173  RH  067%=      5-min Rain = 0
KBR1 140606Z 08010KT 24/17 A3024 RMK A01 T02370173  RH  067%=      5-min Rain = 0
KBR1 140607Z 08010KT 24/17 A3024 RMK A01 T02380173  RH  067%=      5-min Rain = 0
KBR1 140608Z 08010KT 24/17 A3024 RMK A01 T02390174  RH  067%=      5-min Rain = 0
KBR1 140609Z 08011KT 24/17 A3024 RMK A01 T02380174  RH  067%=      5-min Rain = 0
KBR1 140610Z 08009KT 24/17 A3024 RMK A01 T02390174  RH  067%=      5-min Rain = 0
KBR1 140611Z 08009KT 24/18 A3024 RMK A01 T02390175  RH  067%=      5-min Rain = 0
KBR1 140612Z 08011KT 24/18 A3024 RMK A01 T02380175  RH  068%=      5-min Rain = 0
KBR1 140613Z 09011KT 24/18 A3024 RMK A01 T02380175  RH  068%=      5-min Rain = 0
KBR1 140614Z 08011KT 24/18 A3024 RMK A01 T02380175  RH  068%=      5-min Rain = 0
KBR1 140615Z 08011KT 24/18 A3024 RMK A01 T02390175  RH  068%=      5-min Rain = 0
KBR1 140616Z 08010KT 24/18 A3024 RMK A01 T02390175  RH  068%=      5-min Rain = 0
KBR1 140617Z 08010KT 24/18 A3024 RMK A01 T02390176  RH  068%=      5-min Rain = 0
KBR1 140618Z 08010KT 24/18 A3024 RMK A01 T02390176  RH  068%=      5-min Rain = 0
KBR1 140619Z 08009KT 24/18 A3024 RMK A01 T02390176  RH  068%=      5-min Rain = 0
KBR1 140620Z 08011KT 24/18 A3024 RMK A01 T02390176  RH  068%=      5-min Rain = 0
KBR1 140621Z 09012KT 24/18 A3024 RMK A01 T02380176  RH  068%=      5-min Rain = 0
KBR1 140622Z 09011KT 24/18 A3023 RMK A01 T02390177  RH  068%=      5-min Rain = 0
KBR1 140623Z 10013KT 24/18 A3023 RMK A01 T02390177  RH  068%=      5-min Rain = 0
KBR1 140624Z 09012KT 24/18 A3023 RMK A01 T02390177  RH  068%=      5-min Rain = 0
KBR1 140625Z 10013KT 24/18 A3023 RMK A01 T02390177  RH  068%=      5-min Rain = 0
KBR1 140626Z 10012KT 24/18 A3023 RMK A01 T02400177  RH  068%=      5-min Rain = 0
KBR1 140627Z 10011KT 24/18 A3023 RMK A01 T02400177  RH  068%=      5-min Rain = 0
KBR1 140628Z 10011KT 24/18 A3023 RMK A01 T02410177  RH  068%=      5-min Rain = 0
KBR1 140629Z 10010KT 24/18 A3023 RMK A01 T02410178  RH  068%=      5-min Rain = 0
KBR1 140630Z 10011KT 24/18 A3023 RMK A01 T02410178  RH  068%=      5-min Rain = 0
KBR1 140631Z 10010KT 24/18 A3023 RMK A01 T02410178  RH  068%=      5-min Rain = 0
KBR1 140632Z 11011KT 24/18 A3023 RMK A01 T02410178  RH  067%=      5-min Rain = 0
KBR1 140633Z 11012KT 24/18 A3023 RMK A01 T02420178  RH  067%=      5-min Rain = 0
KBR1 140634Z 11014KT 24/18 A3023 RMK A01 T02420177  RH  067%=      5-min Rain = 0
KBR1 140635Z 11012KT 24/18 A3023 RMK A01 T02430177  RH  067%=      5-min Rain = 0
KBR1 140636Z 11012KT 24/18 A3023 RMK A01 T02430178  RH  067%=      5-min Rain = 0
KBR1 140637Z 11012KT 24/18 A3023 RMK A01 T02430178  RH  067%=      5-min Rain = 0
KBR1 140638Z 11011KT 24/18 A3023 RMK A01 T02440178  RH  067%=      5-min Rain = 0
KBR1 140639Z 10013KT 24/18 A3023 RMK A01 T02440178  RH  067%=      5-min Rain = 0
KBR1 140640Z 11012KT 24/18 A3023 RMK A01 T02440178  RH  067%=      5-min Rain = 0
KBR1 140641Z 11013KT 24/18 A3023 RMK A01 T02430178  RH  067%=      5-min Rain = 0
KBR1 140642Z 10012KT 24/18 A3023 RMK A01 T02440178  RH  067%=      5-min Rain = 0
KBR1 140643Z 10011KT 24/18 A3023 RMK A01 T02430178  RH  067%=      5-min Rain = 0
KBR1 140644Z 10010KT 24/18 A3023 RMK A01 T02430178  RH  067%=      5-min Rain = 0
KBR1 140645Z 11009KT 24/18 A3023 RMK A01 T02430178  RH  067%=      5-min Rain = 0
KBR1 140646Z 10011KT 24/18 A3023 RMK A01 T02430178  RH  067%=      5-min Rain = 0
KBR1 140647Z 10010KT 24/18 A3024 RMK A01 T02430178  RH  067%=      5-min Rain = 0
KBR1 140648Z 09009KT 24/18 A3024 RMK A01 T02430179  RH  067%=      5-min Rain = 0
KBR1 140649Z 09010KT 24/18 A3024 RMK A01 T02430178  RH  067%=      5-min Rain = 0
KBR1 140650Z 08009KT 24/18 A3024 RMK A01 T02430179  RH  067%=      5-min Rain = 0
KBR1 140651Z 07009KT 24/18 A3024 RMK A01 T02420179  RH  068%=      5-min Rain = 0
KBR1 140652Z 06010KT 24/18 A3024 RMK A01 T02420179  RH  068%=      5-min Rain = 0
KBR1 140653Z 06011KT 24/18 A3024 RMK A01 T02420179  RH  068%=      5-min Rain = 0
KBR1 140654Z 06017KT 24/18 A3024 RMK A01 T02410178  RH  068%=      5-min Rain = 0
KBR1 140655Z 05018KT 24/17 A3024 RMK A01 T02350174  RH  068%=      5-min Rain = 0
KBR1 140656Z 06016KT 23/17 A3024 RMK A01 T02260170  RH  071%=      5-min Rain = 0
KBR1 140657Z 06016KT 22/17 A3024 RMK A01 T02220171  RH  073%=      5-min Rain = 0
KBR1 140658Z 06015KT 22/17 A3024 RMK A01 T02200172  RH  074%=      5-min Rain = 0
KBR1 140659Z 06018KT 22/17 A3024 RMK A01 T02190172  RH  075%=      5-min Rain = 0
KBR1 140700Z 06021KT 22/17 A3023 RMK A01 T02170169  RH  074%=      5-min Rain = 0
KBR1 140701Z 06021KT 21/16 A3023 RMK A01 T02130164  RH  074%=      5-min Rain = 0
KBR1 140702Z 06018KT 21/16 A3023 RMK A01 T02080164  RH  076%=      5-min Rain = 0
KBR1 140703Z 07017KT 21/16 A3023 RMK A01 T02050164  RH  077%=      5-min Rain = 0
KBR1 140704Z 07018KT 20/16 A3023 RMK A01 T02030164  RH  078%=      5-min Rain = 0
KBR1 140705Z 07019KT 20/16 A3022 RMK A01 T02010163  RH  079%=      5-min Rain = 0
KBR1 140706Z 07019KT 20/16 A3022 RMK A01 T01990162  RH  079%=      5-min Rain = 0
KBR1 140707Z 07022KT 20/16 A3022 RMK A01 T01980161  RH  080%=      5-min Rain = 0
KBR1 140708Z 07019KT 20/16 A3022 RMK A01 T01970162  RH  080%=      5-min Rain = 0
KBR1 140709Z 07017KT 20/16 A3022 RMK A01 T01960162  RH  081%=      5-min Rain = 0
KBR1 140710Z 08020KT 20/16 A3022 RMK A01 T01950161  RH  081%=      5-min Rain = 0
KBR1 140711Z 08019G24KT 19/16 A3023 RMK A01 T01940161  RH  081%=      5-min Rain = 0
KBR1 140712Z 07018KT 19/16 A3023 RMK A01 T01930160  RH  081%=      5-min Rain = 0
KBR1 140713Z 08019G24KT 19/16 A3023 RMK A01 T01930159  RH  081%=      5-min Rain = 0
KBR1 140714Z 08017KT 19/16 A3023 RMK A01 T01930159  RH  081%=      5-min Rain = 0
KBR1 140715Z 08017G24KT 19/16 A3023 RMK A01 T01920157  RH  080%=      5-min Rain = 0
KBR1 140716Z 08019KT 19/16 A3023 RMK A01 T01920157  RH  080%=      5-min Rain = 0
KBR1 140717Z 08016KT 19/16 A3023 RMK A01 T01920156  RH  080%=      5-min Rain = 0
KBR1 140718Z 08017KT 19/16 A3023 RMK A01 T01920156  RH  080%=      5-min Rain = 0
KBR1 140719Z 08018KT 19/16 A3023 RMK A01 T01920155  RH  079%=      5-min Rain = 0
KBR1 140720Z 08016KT 19/16 A3023 RMK A01 T01920156  RH  079%=      5-min Rain = 0
KBR1 140721Z 08018KT 19/16 A3023 RMK A01 T01920155  RH  079%=      5-min Rain = 0
KBR1 140722Z 08016KT 19/16 A3023 RMK A01 T01920155  RH  079%=      5-min Rain = 0
KBR1 140723Z 08015KT 19/16 A3023 RMK A01 T01920155  RH  079%=      5-min Rain = 0
KBR1 140724Z 08017KT 19/16 A3023 RMK A01 T01920155  RH  079%=      5-min Rain = 0
KBR1 140725Z 08016KT 19/15 A3023 RMK A01 T01920154  RH  079%=      5-min Rain = 0
KBR1 140726Z 08016KT 19/15 A3023 RMK A01 T01920153  RH  078%=      5-min Rain = 0
KBR1 140727Z 08018KT 19/15 A3023 RMK A01 T01930153  RH  078%=      5-min Rain = 0
KBR1 140728Z 08017KT 19/15 A3023 RMK A01 T01930153  RH  077%=      5-min Rain = 0
KBR1 140729Z 08016KT 19/15 A3023 RMK A01 T01930152  RH  077%=      5-min Rain = 0
KBR1 140730Z 08018KT 19/15 A3023 RMK A01 T01930152  RH  077%=      5-min Rain = 0
KBR1 140731Z 08016KT 19/15 A3023 RMK A01 T01940153  RH  077%=      5-min Rain = 0
KBR1 140732Z 08021KT 19/15 A3023 RMK A01 T01940152  RH  077%=      5-min Rain = 0
KBR1 140733Z 07020KT 19/15 A3023 RMK A01 T01940151  RH  076%=      5-min Rain = 0
KBR1 140734Z 07020KT 20/15 A3023 RMK A01 T01950150  RH  075%=      5-min Rain = 0
KBR1 140735Z 07016KT 20/15 A3023 RMK A01 T01950151  RH  075%=      5-min Rain = 0
KBR1 140736Z 07017KT 20/15 A3023 RMK A01 T01950152  RH  076%=      5-min Rain = 0
KBR1 140737Z 07016KT 20/15 A3023 RMK A01 T01950151  RH  076%=      5-min Rain = 0
KBR1 140738Z 08016KT 19/15 A3023 RMK A01 T01940151  RH  076%=      5-min Rain = 0
KBR1 140739Z 08016KT 19/15 A3023 RMK A01 T01940151  RH  076%=      5-min Rain = 0
KBR1 140740Z 08019KT 19/15 A3022 RMK A01 T01940150  RH  076%=      5-min Rain = 0
KBR1 140741Z 08020KT 19/15 A3022 RMK A01 T01940149  RH  075%=      5-min Rain = 0
KBR1 140742Z 08019KT 20/15 A3022 RMK A01 T01950149  RH  075%=      5-min Rain = 0
KBR1 140743Z 08017KT 20/15 A3022 RMK A01 T01950149  RH  075%=      5-min Rain = 0
KBR1 140744Z 08015KT 20/15 A3023 RMK A01 T01960149  RH  075%=      5-min Rain = 0
KBR1 140745Z 07017KT 20/15 A3023 RMK A01 T01950149  RH  075%=      5-min Rain = 0
KBR1 140746Z 08017KT 20/15 A3023 RMK A01 T01960150  RH  075%=      5-min Rain = 0
KBR1 140747Z 08021G26KT 20/15 A3023 RMK A01 T01950148  RH  074%=      5-min Rain = 0
KBR1 140748Z 08017KT 20/15 A3023 RMK A01 T01970148  RH  073%=      5-min Rain = 0
KBR1 140749Z 08018KT 20/15 A3023 RMK A01 T01970148  RH  074%=      5-min Rain = 0
KBR1 140750Z 08020KT 20/15 A3023 RMK A01 T01970148  RH  073%=      5-min Rain = 0
KBR1 140751Z 07019KT 20/15 A3023 RMK A01 T01970147  RH  073%=      5-min Rain = 0
KBR1 140752Z 07020G26KT 20/15 A3022 RMK A01 T01970147  RH  073%=      5-min Rain = 0
KBR1 140753Z 07020G25KT 20/15 A3022 RMK A01 T01970147  RH  073%=      5-min Rain = 0
KBR1 140754Z 07023KT 20/15 A3022 RMK A01 T01970146  RH  072%=      5-min Rain = 0
KBR1 140755Z 08022KT 20/15 A3022 RMK A01 T01980145  RH  072%=      5-min Rain = 0
KBR1 140756Z 07021KT 20/15 A3022 RMK A01 T01980145  RH  072%=      5-min Rain = 0
KBR1 140757Z 08020G26KT 20/15 A3022 RMK A01 T01980145  RH  072%=      5-min Rain = 0
KBR1 140758Z 08021KT 20/14 A3022 RMK A01 T01970144  RH  071%=      5-min Rain = 0
KBR1 140759Z 08022G29KT 20/14 A3022 RMK A01 T01970144  RH  071%=      5-min Rain = 0
KBR1 140800Z 08021KT 20/14 A3022 RMK A01 T01980144  RH  071%=      5-min Rain = 0
KBR1 140801Z 08021G26KT 20/14 A3022 RMK A01 T01970144  RH  071%=      5-min Rain = 0
KBR1 140802Z 08018G23KT 20/15 A3022 RMK A01 T01970145  RH  072%=      5-min Rain = 0
KBR1 140803Z 08020KT 20/14 A3022 RMK A01 T01960144  RH  072%=      5-min Rain = 0
KBR1 140804Z 08020KT 20/14 A3022 RMK A01 T01960143  RH  071%=      5-min Rain = 0
KBR1 140805Z 08019KT 20/14 A3022 RMK A01 T01960143  RH  071%=      5-min Rain = 0
KBR1 140806Z 08021G26KT 20/14 A3022 RMK A01 T01960143  RH  071%=      5-min Rain = 0
KBR1 140807Z 08021KT 20/14 A3022 RMK A01 T01960143  RH  071%=      5-min Rain = 0
KBR1 140808Z 08020G25KT 20/14 A3021 RMK A01 T01960143  RH  071%=      5-min Rain = 0
KBR1 140809Z 07019KT 20/14 A3021 RMK A01 T01960143  RH  071%=      5-min Rain = 0
KBR1 140810Z 07019G24KT 20/14 A3021 RMK A01 T01960143  RH  071%=      5-min Rain = 0
KBR1 140811Z 07018G25KT 20/14 A3022 RMK A01 T01960143  RH  071%=      5-min Rain = 0
KBR1 140812Z 07019G25KT 20/14 A3022 RMK A01 T01960142  RH  071%=      5-min Rain = 0
KBR1 140813Z 07019KT 20/14 A3022 RMK A01 T01950141  RH  071%=      5-min Rain = 0
KBR1 140814Z 07021G26KT 20/14 A3022 RMK A01 T01950141  RH  071%=      5-min Rain = 0
KBR1 140815Z 07024KT 19/14 A3022 RMK A01 T01940140  RH  071%=      5-min Rain = 0
KBR1 140816Z 07019KT 19/14 A3023 RMK A01 T01940140  RH  071%=      5-min Rain = 0
KBR1 140817Z 07022KT 19/14 A3022 RMK A01 T01940140  RH  071%=      5-min Rain = 0
KBR1 140818Z 07024KT 19/14 A3022 RMK A01 T01940139  RH  070%=      5-min Rain = 0
KBR1 140819Z 07025G31KT 19/14 A3022 RMK A01 T01940138  RH  070%=      5-min Rain = 0
KBR1 140820Z 07024G33KT 19/14 A3022 RMK A01 T01940137  RH  069%=      5-min Rain = 0
KBR1 140821Z 06026KT 19/14 A3023 RMK A01 T01940136  RH  069%=      5-min Rain = 0
KBR1 140822Z 07026KT 19/14 A3023 RMK A01 T01940136  RH  069%=      5-min Rain = 0
KBR1 140823Z 06022G27KT 19/14 A3023 RMK A01 T01940137  RH  069%=      5-min Rain = 0
KBR1 140824Z 07025G30KT 19/14 A3023 RMK A01 T01940138  RH  070%=      5-min Rain = 0
KBR1 140825Z 06020G25KT 19/14 A3023 RMK A01 T01940139  RH  070%=      5-min Rain = 0
KBR1 140826Z 06024G29KT 19/14 A3023 RMK A01 T01930140  RH  071%=      5-min Rain = 0
KBR1 140827Z 06023KT 19/14 A3024 RMK A01 T01930140  RH  072%=      5-min Rain = 0
KBR1 140828Z 06021KT 19/14 A3024 RMK A01 T01920140  RH  072%=      5-min Rain = 0
KBR1 140829Z 05024KT 19/14 A3024 RMK A01 T01920139  RH  071%=      5-min Rain = 0
KBR1 140830Z 05024KT 19/14 A3024 RMK A01 T01910138  RH  071%=      5-min Rain = 0
KBR1 140831Z 06024G29KT 19/14 A3025 RMK A01 T01910137  RH  071%=      5-min Rain = 0
KBR1 140832Z 05022G27KT 19/14 A3025 RMK A01 T01910137  RH  071%=      5-min Rain = 0
KBR1 140833Z 06023KT 19/14 A3025 RMK A01 T01910136  RH  071%=      5-min Rain = 0
KBR1 140834Z 06024KT 19/14 A3025 RMK A01 T01910136  RH  070%=      5-min Rain = 0
KBR1 140835Z 05025KT 19/14 A3025 RMK A01 T01910135  RH  070%=      5-min Rain = 0
KBR1 140836Z 05021KT 19/14 A3026 RMK A01 T01910135  RH  070%=      5-min Rain = 0
KBR1 140837Z 05023KT 19/14 A3026 RMK A01 T01910135  RH  070%=      5-min Rain = 0
KBR1 140838Z 05023KT 19/13 A3026 RMK A01 T01910134  RH  070%=      5-min Rain = 0
KBR1 140839Z 05024KT 19/13 A3026 RMK A01 T01910133  RH  069%=      5-min Rain = 0
KBR1 140840Z 05021G26KT 19/13 A3026 RMK A01 T01910133  RH  069%=      5-min Rain = 0
KBR1 140841Z 05023KT 19/13 A3027 RMK A01 T01910133  RH  069%=      5-min Rain = 0
KBR1 140842Z 04019KT 19/13 A3027 RMK A01 T01900133  RH  069%=      5-min Rain = 0
KBR1 140843Z 04020KT 19/13 A3028 RMK A01 T01900134  RH  070%=      5-min Rain = 0
KBR1 140844Z 04020KT 19/14 A3029 RMK A01 T01900135  RH  070%=      5-min Rain = 0
KBR1 140845Z 04017KT 19/14 A3029 RMK A01 T01900136  RH  071%=      5-min Rain = 0
KBR1 140846Z 03013KT 19/14 A303 RMK A01 T01900137  RH  071%=      5-min Rain = 0
KBR1 140847Z 03012G17KT 19/14 A303 RMK A01 T01900138  RH  072%=      5-min Rain = 0
KBR1 140848Z 03014KT 19/14 A3031 RMK A01 T01900137  RH  071%=      5-min Rain = 0
KBR1 140849Z 01010G16KT 19/14 A3031 RMK A01 T01890135  RH  071%=      5-min Rain = 0
KBR1 140850Z 02012G17KT 19/14 A3031 RMK A01 T01890135  RH  071%=      5-min Rain = 0
KBR1 140851Z 02013KT 19/13 A3031 RMK A01 T01890132  RH  069%=      5-min Rain = 0
KBR1 140852Z 02012G17KT 19/13 A3031 RMK A01 T01890131  RH  069%=      5-min Rain = 0
KBR1 140853Z 01010KT 19/13 A3031 RMK A01 T01890131  RH  069%=      5-min Rain = 0
KBR1 140854Z 36010G15KT 19/13 A3031 RMK A01 T01890133  RH  070%=      5-min Rain = 0
KBR1 140855Z 36011KT 19/13 A3031 RMK A01 T01880133  RH  070%=      5-min Rain = 0
KBR1 140856Z 35011KT 19/14 A3031 RMK A01 T01880135  RH  071%=      5-min Rain = 0
KBR1 140857Z 35012KT 19/14 A3031 RMK A01 T01860138  RH  073%=      5-min Rain = 0.01
KBR1 140858Z 33010KT 18/14 A3031 RMK A01 T01840142  RH  077%=      5-min Rain = 0.01
KBR1 140859Z 32009KT 18/15 A3031 RMK A01 T01810145  RH  079%=      5-min Rain = 0.02
KBR1 140900Z 31010KT 18/15 A3031 RMK A01 T01780147  RH  082%=      5-min Rain = 0.02
KBR1 140901Z 31012KT 18/15 A3031 RMK A01 T01750147  RH  084%=      5-min Rain = 0.02
KBR1 140902Z 31010KT 17/15 A303 RMK A01 T01720148  RH  086%=      5-min Rain = 0.01
KBR1 140903Z 30010KT 17/15 A303 RMK A01 T01700149  RH  087%=      5-min Rain = 0.01
KBR1 140904Z 32007KT 17/15 A303 RMK A01 T01690149  RH  088%=      5-min Rain = 0.01
KBR1 140905Z 32010KT 17/15 A3031 RMK A01 T01680146  RH  087%=      5-min Rain = 0.01
KBR1 140906Z 33011KT 17/14 A3031 RMK A01 T01680144  RH  086%=      5-min Rain = 0.01
KBR1 140907Z 33010G15KT 17/14 A3031 RMK A01 T01690142  RH  084%=      5-min Rain = 0
KBR1 140908Z 33010KT 17/14 A3031 RMK A01 T01700139  RH  082%=      5-min Rain = 0.01
KBR1 140909Z 33009KT 17/14 A3031 RMK A01 T01710141  RH  082%=      5-min Rain = 0
KBR1 140910Z 34009KT 17/14 A3031 RMK A01 T01710144  RH  084%=      5-min Rain = 0.01
KBR1 140911Z 35008KT 17/15 A3031 RMK A01 T01700145  RH  085%=      5-min Rain = 0
KBR1 140912Z 35008KT 17/14 A3031 RMK A01 T01700144  RH  085%=      5-min Rain = 0
KBR1 140913Z 34007KT 17/15 A3031 RMK A01 T01700148  RH  087%=      5-min Rain = 0.01
KBR1 140914Z 36008KT 17/15 A3031 RMK A01 T01690148  RH  087%=      5-min Rain = 0
KBR1 140915Z 00007KT 17/15 A303 RMK A01 T01680148  RH  088%=      5-min Rain = 0
KBR1 140916Z 01008KT 17/15 A303 RMK A01 T01680149  RH  088%=      5-min Rain = 0
KBR1 140917Z 03008KT 17/15 A3029 RMK A01 T01680148  RH  088%=      5-min Rain = 0.01
KBR1 140918Z 03008KT 17/15 A3029 RMK A01 T01680147  RH  087%=      5-min Rain = 0
KBR1 140919Z 04010KT 17/15 A3028 RMK A01 T01670147  RH  088%=      5-min Rain = 0
KBR1 140920Z 04011KT 17/15 A3028 RMK A01 T01670147  RH  088%=      5-min Rain = 0.01
KBR1 140921Z 04010KT 17/15 A3028 RMK A01 T01670147  RH  088%=      5-min Rain = 0
KBR1 140922Z 04009KT 17/15 A3027 RMK A01 T01670148  RH  088%=      5-min Rain = 0
KBR1 140923Z 04009KT 17/15 A3027 RMK A01 T01670148  RH  089%=      5-min Rain = 0
KBR1 140924Z 05009KT 17/15 A3027 RMK A01 T01670147  RH  088%=      5-min Rain = 0
KBR1 140925Z 05008KT 17/15 A3027 RMK A01 T01670147  RH  088%=      5-min Rain = 0
KBR1 140926Z 05009KT 17/15 A3028 RMK A01 T01660147  RH  088%=      5-min Rain = 0.01
KBR1 140927Z 06009KT 17/15 A3028 RMK A01 T01660146  RH  088%=      5-min Rain = 0
KBR1 140928Z 06008KT 17/15 A3028 RMK A01 T01660145  RH  087%=      5-min Rain = 0
KBR1 140929Z 06008KT 17/15 A3028 RMK A01 T01660145  RH  087%=      5-min Rain = 0
KBR1 140930Z 06008KT 17/15 A3028 RMK A01 T01660146  RH  088%=      5-min Rain = 0
KBR1 140931Z 06008KT 17/15 A3028 RMK A01 T01660147  RH  088%=      5-min Rain = 0
KBR1 140932Z 05009KT 17/15 A3028 RMK A01 T01660146  RH  088%=      5-min Rain = 0
KBR1 140933Z 05009KT 17/15 A3028 RMK A01 T01660145  RH  088%=      5-min Rain = 0.01
KBR1 140934Z 04009KT 17/15 A3028 RMK A01 T01660146  RH  088%=      5-min Rain = 0
KBR1 140935Z 03008KT 17/15 A3029 RMK A01 T01660146  RH  088%=      5-min Rain = 0
KBR1 140936Z 02009KT 17/15 A3029 RMK A01 T01660146  RH  088%=      5-min Rain = 0
KBR1 140937Z 01009KT 17/15 A3029 RMK A01 T01660147  RH  088%=      5-min Rain = 0
KBR1 140938Z 00010KT 17/15 A3029 RMK A01 T01660148  RH  089%=      5-min Rain = 0
KBR1 140939Z 00011KT 17/15 A3029 RMK A01 T01660147  RH  089%=      5-min Rain = 0
KBR1 140940Z 00010KT 17/15 A3029 RMK A01 T01650146  RH  088%=      5-min Rain = 0
KBR1 140941Z 00011KT 17/15 A3029 RMK A01 T01650146  RH  089%=      5-min Rain = 0
KBR1 140942Z 01013KT 17/15 A3029 RMK A01 T01650146  RH  088%=      5-min Rain = 0
KBR1 140943Z 01013KT 17/15 A3029 RMK A01 T01650147  RH  089%=      5-min Rain = 0
KBR1 140944Z 02012KT 17/15 A3029 RMK A01 T01650146  RH  089%=      5-min Rain = 0
KBR1 140945Z 03011KT 17/15 A3029 RMK A01 T01650147  RH  089%=      5-min Rain = 0
KBR1 140946Z 03011KT 16/15 A3028 RMK A01 T01640145  RH  089%=      5-min Rain = 0
KBR1 140947Z 04011KT 16/14 A3028 RMK A01 T01640144  RH  088%=      5-min Rain = 0
KBR1 140948Z 05011KT 16/14 A3028 RMK A01 T01640144  RH  088%=      5-min Rain = 0
KBR1 140949Z 05013KT 17/15 A3027 RMK A01 T01650145  RH  088%=      5-min Rain = 0
KBR1 140950Z 05013KT 17/14 A3027 RMK A01 T01650142  RH  086%=      5-min Rain = 0
KBR1 140951Z 05012KT 17/14 A3027 RMK A01 T01650143  RH  087%=      5-min Rain = 0
KBR1 140952Z 06012KT 17/14 A3027 RMK A01 T01660144  RH  087%=      5-min Rain = 0
KBR1 140953Z 06011KT 17/15 A3027 RMK A01 T01660145  RH  087%=      5-min Rain = 0
KBR1 140954Z 06010KT 17/14 A3027 RMK A01 T01650144  RH  087%=      5-min Rain = 0
KBR1 140955Z 06011KT 17/14 A3027 RMK A01 T01660144  RH  087%=      5-min Rain = 0
KBR1 140956Z 06008KT 17/14 A3027 RMK A01 T01660144  RH  087%=      5-min Rain = 0
KBR1 140957Z 05007KT 17/15 A3027 RMK A01 T01660145  RH  088%=      5-min Rain = 0
KBR1 140958Z 04007KT 17/14 A3028 RMK A01 T01650144  RH  087%=      5-min Rain = 0
KBR1 140959Z 03007KT 17/14 A3028 RMK A01 T01660144  RH  087%=      5-min Rain = 0
KBR1 141000Z 00007KT 17/14 A3029 RMK A01 T01660143  RH  086%=      5-min Rain = 0
KBR1 141001Z 34008KT 17/15 A3029 RMK A01 T01670145  RH  087%=      5-min Rain = 0
KBR1 141002Z 33011KT 17/15 A3029 RMK A01 T01670146  RH  087%=      5-min Rain = 0
KBR1 141003Z 32013KT 17/15 A303 RMK A01 T01670148  RH  089%=      5-min Rain = 0
KBR1 141004Z 33014KT 17/15 A303 RMK A01 T01660148  RH  089%=      5-min Rain = 0
KBR1 141005Z 33014KT 17/15 A303 RMK A01 T01660147  RH  089%=      5-min Rain = 0
KBR1 141006Z 32015G20KT 17/15 A303 RMK A01 T01650148  RH  090%=      5-min Rain = 0
KBR1 141007Z 32020KT 16/15 A303 RMK A01 T01640148  RH  090%=      5-min Rain = 0
KBR1 141008Z 32022KT 16/15 A3031 RMK A01 T01630146  RH  090%=      5-min Rain = 0
KBR1 141009Z 32023KT 16/15 A3031 RMK A01 T01640146  RH  089%=      5-min Rain = 0
KBR1 141010Z 33022G28KT 16/14 A3031 RMK A01 T01640144  RH  088%=      5-min Rain = 0
KBR1 141011Z 33025KT 17/14 A3031 RMK A01 T01650142  RH  086%=      5-min Rain = 0
KBR1 141012Z 34023KT 17/14 A3031 RMK A01 T01660141  RH  085%=      5-min Rain = 0
KBR1 141013Z 35021KT 17/14 A3031 RMK A01 T01660140  RH  085%=      5-min Rain = 0
KBR1 141014Z 00020KT 17/14 A3031 RMK A01 T01670138  RH  083%=      5-min Rain = 0
KBR1 141015Z 01020KT 17/14 A303 RMK A01 T01680138  RH  083%=      5-min Rain = 0
KBR1 141016Z 02021KT 17/14 A303 RMK A01 T01690138  RH  082%=      5-min Rain = 0
KBR1 141017Z 02022KT 17/14 A303 RMK A01 T01690137  RH  082%=      5-min Rain = 0
KBR1 141018Z 03021KT 17/14 A3029 RMK A01 T01690138  RH  082%=      5-min Rain = 0
KBR1 141019Z 03021KT 17/14 A3029 RMK A01 T01680138  RH  082%=      5-min Rain = 0
KBR1 141020Z 04020KT 17/14 A3029 RMK A01 T01680139  RH  083%=      5-min Rain = 0
KBR1 141021Z 03019KT 17/14 A3029 RMK A01 T01670139  RH  084%=      5-min Rain = 0
KBR1 141022Z 03018KT 17/14 A3029 RMK A01 T01660141  RH  085%=      5-min Rain = 0
KBR1 141023Z 03018KT 17/14 A3029 RMK A01 T01650142  RH  086%=      5-min Rain = 0.01
KBR1 141024Z 03018KT 16/14 A3029 RMK A01 T01640143  RH  087%=      5-min Rain = 0.01
KBR1 141025Z 03024G29KT 16/14 A3029 RMK A01 T01620142  RH  088%=      5-min Rain = 0.01
KBR1 141026Z 04028KT 16/14 A3029 RMK A01 T01580137  RH  088%=      5-min Rain = 0.08
KBR1 141027Z 06026KT 15/14 A3029 RMK A01 T01510135  RH  090%=      5-min Rain = 0.06
KBR1 141028Z 06022KT 15/14 A3029 RMK A01 T01470136  RH  093%=      5-min Rain = 0.04
KBR1 141029Z 06020KT 15/14 A3028 RMK A01 T01450135  RH  094%=      5-min Rain = 0.02
KBR1 141030Z 07018KT 15/14 A3028 RMK A01 T01450136  RH  094%=      5-min Rain = 0.01
KBR1 141031Z 06015KT 14/14 A3028 RMK A01 T01440136  RH  095%=      5-min Rain = 0.01
KBR1 141032Z 06014KT 14/14 A3028 RMK A01 T01440137  RH  095%=      5-min Rain = 0
KBR1 141033Z 05014KT 15/14 A3028 RMK A01 T01450138  RH  095%=      5-min Rain = 0
KBR1 141034Z 05016KT 15/14 A3028 RMK A01 T01460139  RH  096%=      5-min Rain = 0
KBR1 141035Z 04016KT 15/14 A3028 RMK A01 T01470140  RH  095%=      5-min Rain = 0.01
KBR1 141036Z 03016G21KT 15/14 A3028 RMK A01 T01480141  RH  095%=      5-min Rain = 0
KBR1 141037Z 03016KT 15/14 A3028 RMK A01 T01500142  RH  095%=      5-min Rain = 0
KBR1 141038Z 04015KT 15/14 A3028 RMK A01 T01500143  RH  095%=      5-min Rain = 0
KBR1 141039Z 03015KT 15/14 A3028 RMK A01 T01510143  RH  095%=      5-min Rain = 0
KBR1 141040Z 03016KT 15/14 A3029 RMK A01 T01520143  RH  095%=      5-min Rain = 0.01
KBR1 141041Z 03017KT 15/14 A3029 RMK A01 T01520143  RH  095%=      5-min Rain = 0
KBR1 141042Z 02017KT 15/14 A3029 RMK A01 T01530144  RH  095%=      5-min Rain = 0
KBR1 141043Z 02016KT 15/14 A3029 RMK A01 T01530144  RH  094%=      5-min Rain = 0
KBR1 141044Z 02014KT 15/14 A3029 RMK A01 T01530144  RH  094%=      5-min Rain = 0
KBR1 141045Z 02014KT 15/14 A3029 RMK A01 T01540144  RH  094%=      5-min Rain = 0
KBR1 141046Z 03014KT 15/14 A3029 RMK A01 T01540144  RH  094%=      5-min Rain = 0
KBR1 141047Z 03014KT 15/14 A3029 RMK A01 T01540144  RH  094%=      5-min Rain = 0
KBR1 141048Z 03013KT 15/14 A3029 RMK A01 T01540144  RH  094%=      5-min Rain = 0
KBR1 141049Z 03012KT 15/14 A303 RMK A01 T01540144  RH  094%=      5-min Rain = 0
KBR1 141050Z 02013KT 15/15 A303 RMK A01 T01540145  RH  094%=      5-min Rain = 0
KBR1 141051Z 04013KT 16/15 A303 RMK A01 T01550145  RH  094%=      5-min Rain = 0
KBR1 141052Z 05013KT 16/15 A3031 RMK A01 T01550145  RH  094%=      5-min Rain = 0
KBR1 141053Z 06012KT 16/14 A3031 RMK A01 T01560144  RH  093%=      5-min Rain = 0
KBR1 141054Z 06012KT 16/14 A3031 RMK A01 T01560144  RH  092%=      5-min Rain = 0
KBR1 141055Z 06011KT 16/14 A3031 RMK A01 T01570144  RH  092%=      5-min Rain = 0
KBR1 141056Z 06012KT 16/14 A3031 RMK A01 T01570144  RH  092%=      5-min Rain = 0
KBR1 141057Z 06009KT 16/14 A3032 RMK A01 T01580144  RH  091%=      5-min Rain = 0
KBR1 141058Z 06010G15KT 16/15 A3032 RMK A01 T01580145  RH  092%=      5-min Rain = 0
KBR1 141059Z 05010KT 16/14 A3032 RMK A01 T01590144  RH  091%=      5-min Rain = 0
KBR1 141100Z 05008KT 16/15 A3032 RMK A01 T01590145  RH  091%=      5-min Rain = 0
KBR1 141101Z 04007KT 16/15 A3032 RMK A01 T01590145  RH  092%=      5-min Rain = 0
KBR1 141102Z 05007KT 16/15 A3032 RMK A01 T01590145  RH  091%=      5-min Rain = 0
KBR1 141103Z 04007KT 16/14 A3032 RMK A01 T01590144  RH  091%=      5-min Rain = 0
KBR1 141104Z 04008KT 16/14 A3032 RMK A01 T01590144  RH  091%=      5-min Rain = 0
KBR1 141105Z 04007G12KT 16/14 A3032 RMK A01 T01600144  RH  090%=      5-min Rain = 0
KBR1 141106Z 04005KT 16/15 A3032 RMK A01 T01610146  RH  091%=      5-min Rain = 0
KBR1 141107Z 04005KT 16/15 A3032 RMK A01 T01610145  RH  090%=      5-min Rain = 0
KBR1 141108Z 01004KT 16/14 A3032 RMK A01 T01610144  RH  090%=      5-min Rain = 0
KBR1 141109Z 34003KT 16/15 A3033 RMK A01 T01620145  RH  090%=      5-min Rain = 0
KBR1 141110Z 31004KT 16/15 A3033 RMK A01 T01610146  RH  090%=      5-min Rain = 0
KBR1 141111Z 31007KT 16/15 A3033 RMK A01 T01620146  RH  091%=      5-min Rain = 0
KBR1 141112Z 30006KT 16/15 A3034 RMK A01 T01620146  RH  090%=      5-min Rain = 0
KBR1 141113Z 29007KT 16/15 A3034 RMK A01 T01620147  RH  091%=      5-min Rain = 0
KBR1 141114Z 28008KT 16/15 A3034 RMK A01 T01620148  RH  091%=      5-min Rain = 0
KBR1 141115Z 28009KT 16/15 A3034 RMK A01 T01620149  RH  092%=      5-min Rain = 0
KBR1 141116Z 28009KT 16/15 A3034 RMK A01 T01610149  RH  093%=      5-min Rain = 0
KBR1 141117Z 28009KT 16/15 A3034 RMK A01 T01600149  RH  093%=      5-min Rain = 0
KBR1 141118Z 29008KT 16/15 A3034 RMK A01 T01600149  RH  093%=      5-min Rain = 0
KBR1 141119Z 30007KT 16/15 A3034 RMK A01 T01600150  RH  094%=      5-min Rain = 0
KBR1 141120Z 30007KT 16/15 A3034 RMK A01 T01600150  RH  094%=      5-min Rain = 0
KBR1 141121Z 30006KT 16/15 A3034 RMK A01 T01600149  RH  093%=      5-min Rain = 0.01
KBR1 141122Z 30003KT 16/15 A3033 RMK A01 T01600148  RH  093%=      5-min Rain = 0
KBR1 141123Z 33002KT 16/15 A3033 RMK A01 T01600149  RH  093%=      5-min Rain = 0
KBR1 141124Z 32001KT 16/15 A3033 RMK A01 T01610148  RH  092%=      5-min Rain = 0
KBR1 141125Z 24001KT 16/15 A3032 RMK A01 T01610146  RH  091%=      5-min Rain = 0
KBR1 141126Z 10001KT 16/15 A3032 RMK A01 T01610147  RH  092%=      5-min Rain = 0.01
KBR1 141127Z 08004KT 16/15 A3032 RMK A01 T01610147  RH  091%=      5-min Rain = 0.01
KBR1 141128Z 10005KT 16/15 A3032 RMK A01 T01620148  RH  091%=      5-min Rain = 0.01
KBR1 141129Z 08009G14KT 16/15 A3031 RMK A01 T01620149  RH  092%=      5-min Rain = 0.01
KBR1 141130Z 07008KT 16/15 A3031 RMK A01 T01630146  RH  090%=      5-min Rain = 0.01
KBR1 141131Z 07012KT 16/15 A303 RMK A01 T01640146  RH  089%=      5-min Rain = 0.01
KBR1 141132Z 09013KT 17/15 A303 RMK A01 T01670145  RH  087%=      5-min Rain = 0.01
KBR1 141133Z 08013KT 17/15 A303 RMK A01 T01680147  RH  087%=      5-min Rain = 0
KBR1 141134Z 09013KT 17/15 A3029 RMK A01 T01670147  RH  088%=      5-min Rain = 0
KBR1 141135Z 09014KT 17/15 A3028 RMK A01 T01660146  RH  088%=      5-min Rain = 0.01
KBR1 141136Z 09015KT 17/15 A3028 RMK A01 T01660147  RH  088%=      5-min Rain = 0
KBR1 141137Z 10016KT 17/15 A3027 RMK A01 T01660147  RH  088%=      5-min Rain = 0
KBR1 141138Z 10015KT 17/15 A3027 RMK A01 T01670147  RH  088%=      5-min Rain = 0
KBR1 141139Z 10015KT 17/15 A3027 RMK A01 T01670148  RH  089%=      5-min Rain = 0
KBR1 141140Z 10014KT 17/15 A3027 RMK A01 T01660148  RH  089%=      5-min Rain = 0
KBR1 141141Z 11015KT 17/15 A3026 RMK A01 T01660148  RH  089%=      5-min Rain = 0
KBR1 141142Z 10014KT 17/15 A3026 RMK A01 T01650148  RH  090%=      5-min Rain = 0
KBR1 141143Z 11013KT 17/15 A3026 RMK A01 T01650149  RH  090%=      5-min Rain = 0
KBR1 141144Z 11014KT 16/15 A3026 RMK A01 T01640149  RH  091%=      5-min Rain = 0
KBR1 141145Z 11012KT 16/15 A3026 RMK A01 T01640148  RH  090%=      5-min Rain = 0
KBR1 141146Z 11013KT 16/15 A3026 RMK A01 T01640148  RH  090%=      5-min Rain = 0
KBR1 141147Z 11013KT 17/15 A3025 RMK A01 T01650149  RH  090%=      5-min Rain = 0
KBR1 141148Z 11014KT 17/15 A3025 RMK A01 T01650150  RH  091%=      5-min Rain = 0
KBR1 141149Z 11016KT 17/15 A3024 RMK A01 T01660149  RH  090%=      5-min Rain = 0
KBR1 141150Z 11015KT 17/15 A3024 RMK A01 T01660149  RH  090%=      5-min Rain = 0
KBR1 141151Z 10017KT 17/15 A3023 RMK A01 T01660149  RH  089%=      5-min Rain = 0
KBR1 141152Z 10017KT 17/15 A3023 RMK A01 T01670149  RH  089%=      5-min Rain = 0
KBR1 141153Z 09018KT 17/15 A3023 RMK A01 T01670147  RH  088%=      5-min Rain = 0
KBR1 141154Z 10019KT 17/15 A3023 RMK A01 T01690146  RH  086%=      5-min Rain = 0
KBR1 141155Z 10017KT 17/15 A3023 RMK A01 T01700145  RH  085%=      5-min Rain = 0
KBR1 141156Z 10017KT 17/15 A3023 RMK A01 T01710145  RH  085%=      5-min Rain = 0
KBR1 141157Z 10016KT 17/15 A3023 RMK A01 T01710146  RH  085%=      5-min Rain = 0
KBR1 141158Z 10016KT 17/15 A3023 RMK A01 T01710147  RH  086%=      5-min Rain = 0
KBR1 141159Z 10013KT 17/15 A3024 RMK A01 T01710147  RH  086%=      5-min Rain = 0
KBR1 141200Z 09015KT 17/15 A3024 RMK A01 T01710147  RH  086%=      5-min Rain = 0
KBR1 141201Z 10015KT 17/15 A3024 RMK A01 T01710146  RH  085%=      5-min Rain = 0
KBR1 141202Z 10016KT 17/15 A3024 RMK A01 T01720146  RH  085%=      5-min Rain = 0
KBR1 141203Z 10018KT 17/15 A3023 RMK A01 T01720146  RH  085%=      5-min Rain = 0
KBR1 141204Z 10018KT 17/15 A3023 RMK A01 T01730145  RH  084%=      5-min Rain = 0
KBR1 141205Z 11019KT 17/15 A3023 RMK A01 T01730145  RH  083%=      5-min Rain = 0
KBR1 141206Z 11017KT 17/15 A3024 RMK A01 T01740145  RH  083%=      5-min Rain = 0
KBR1 141207Z 12016KT 17/15 A3024 RMK A01 T01740146  RH  083%=      5-min Rain = 0
KBR1 141208Z 12013KT 17/15 A3024 RMK A01 T01740146  RH  084%=      5-min Rain = 0
KBR1 141209Z 13011KT 17/15 A3025 RMK A01 T01730147  RH  085%=      5-min Rain = 0
KBR1 141210Z 13012KT 17/15 A3025 RMK A01 T01720149  RH  087%=      5-min Rain = 0
KBR1 141211Z 14011KT 17/15 A3025 RMK A01 T01700150  RH  088%=      5-min Rain = 0
KBR1 141212Z 14011KT 17/15 A3024 RMK A01 T01690149  RH  088%=      5-min Rain = 0
KBR1 141213Z 15011KT 17/15 A3024 RMK A01 T01680150  RH  089%=      5-min Rain = 0
KBR1 141214Z 15010KT 17/15 A3024 RMK A01 T01670151  RH  090%=      5-min Rain = 0
KBR1 141215Z 16011KT 17/15 A3024 RMK A01 T01660151  RH  091%=      5-min Rain = 0
KBR1 141216Z 15012KT 17/15 A3024 RMK A01 T01650152  RH  091%=      5-min Rain = 0
KBR1 141217Z 16011KT 17/15 A3024 RMK A01 T01650152  RH  092%=      5-min Rain = 0
KBR1 141218Z 16011KT 16/15 A3024 RMK A01 T01640151  RH  092%=      5-min Rain = 0
KBR1 141219Z 16011KT 16/15 A3024 RMK A01 T01640151  RH  092%=      5-min Rain = 0
KBR1 141220Z 16011KT 16/15 A3024 RMK A01 T01640150  RH  092%=      5-min Rain = 0
KBR1 141221Z 17012KT 16/15 A3024 RMK A01 T01640149  RH  091%=      5-min Rain = 0
KBR1 141222Z 16009KT 16/15 A3024 RMK A01 T01640149  RH  091%=      5-min Rain = 0
KBR1 141223Z 16009KT 16/15 A3024 RMK A01 T01640149  RH  091%=      5-min Rain = 0
KBR1 141224Z 15008KT 16/15 A3024 RMK A01 T01640149  RH  091%=      5-min Rain = 0
KBR1 141225Z 16008KT 16/15 A3024 RMK A01 T01640149  RH  091%=      5-min Rain = 0
KBR1 141226Z 16010KT 16/15 A3024 RMK A01 T01640147  RH  089%=      5-min Rain = 0
KBR1 141227Z 16009KT 17/15 A3024 RMK A01 T01660146  RH  088%=      5-min Rain = 0
KBR1 141228Z 17009KT 17/15 A3025 RMK A01 T01670147  RH  088%=      5-min Rain = 0
KBR1 141229Z 18009KT 17/15 A3025 RMK A01 T01670146  RH  087%=      5-min Rain = 0
KBR1 141230Z 18010KT 17/15 A3025 RMK A01 T01680146  RH  087%=      5-min Rain = 0
KBR1 141231Z 18008KT 17/15 A3025 RMK A01 T01680146  RH  087%=      5-min Rain = 0
KBR1 141232Z 19007KT 17/15 A3025 RMK A01 T01680147  RH  088%=      5-min Rain = 0
KBR1 141233Z 18006KT 17/15 A3024 RMK A01 T01670148  RH  088%=      5-min Rain = 0
KBR1 141234Z 19006KT 17/15 A3024 RMK A01 T01670148  RH  089%=      5-min Rain = 0
KBR1 141235Z 19004KT 17/15 A3024 RMK A01 T01660147  RH  088%=      5-min Rain = 0
KBR1 141236Z 19004KT 17/15 A3025 RMK A01 T01670147  RH  088%=      5-min Rain = 0
KBR1 141237Z 20004KT 17/15 A3025 RMK A01 T01670146  RH  088%=      5-min Rain = 0
KBR1 141238Z 21004KT 17/15 A3025 RMK A01 T01660147  RH  088%=      5-min Rain = 0
KBR1 141239Z 24003KT 17/15 A3025 RMK A01 T01670148  RH  088%=      5-min Rain = 0
KBR1 141240Z 25004KT 17/15 A3025 RMK A01 T01660147  RH  088%=      5-min Rain = 0
KBR1 141241Z 24004KT 17/15 A3025 RMK A01 T01660148  RH  089%=      5-min Rain = 0
KBR1 141242Z 23004KT 17/15 A3025 RMK A01 T01660149  RH  090%=      5-min Rain = 0
KBR1 141243Z 22004KT 17/15 A3025 RMK A01 T01650149  RH  090%=      5-min Rain = 0
KBR1 141244Z 22003KT 17/15 A3024 RMK A01 T01650149  RH  090%=      5-min Rain = 0
KBR1 141245Z 21004KT 17/15 A3024 RMK A01 T01650150  RH  091%=      5-min Rain = 0
KBR1 141246Z 22004KT 17/15 A3024 RMK A01 T01650150  RH  091%=      5-min Rain = 0
KBR1 141247Z 21005KT 16/15 A3023 RMK A01 T01640150  RH  091%=      5-min Rain = 0
KBR1 141248Z 22005KT 17/15 A3023 RMK A01 T01650151  RH  091%=      5-min Rain = 0
KBR1 141249Z 22005KT 17/15 A3023 RMK A01 T01650151  RH  091%=      5-min Rain = 0
KBR1 141250Z 23006KT 16/15 A3024 RMK A01 T01640151  RH  092%=      5-min Rain = 0
KBR1 141251Z 24005KT 16/15 A3024 RMK A01 T01640152  RH  092%=      5-min Rain = 0
KBR1 141252Z 27004KT 16/15 A3024 RMK A01 T01640152  RH  093%=      5-min Rain = 0
KBR1 141253Z 28004KT 16/15 A3025 RMK A01 T01640152  RH  093%=      5-min Rain = 0
KBR1 141254Z 30005KT 16/15 A3025 RMK A01 T01640153  RH  093%=      5-min Rain = 0
KBR1 141255Z 30006KT 16/15 A3025 RMK A01 T01640153  RH  093%=      5-min Rain = 0
KBR1 141256Z 31007KT 16/15 A3026 RMK A01 T01640154  RH  094%=      5-min Rain = 0
KBR1 141257Z 31007KT 16/15 A3026 RMK A01 T01640154  RH  094%=      5-min Rain = 0
KBR1 141258Z 31008KT 16/15 A3027 RMK A01 T01640154  RH  094%=      5-min Rain = 0
KBR1 141259Z 32010KT 16/16 A3027 RMK A01 T01640155  RH  094%=      5-min Rain = 0
KBR1 141300Z 33011KT 16/16 A3027 RMK A01 T01640155  RH  094%=      5-min Rain = 0
KBR1 141301Z 33010KT 16/16 A3028 RMK A01 T01640155  RH  094%=      5-min Rain = 0
KBR1 141302Z 34012KT 16/16 A3028 RMK A01 T01640156  RH  094%=      5-min Rain = 0
KBR1 141303Z 33011KT 16/16 A3028 RMK A01 T01640155  RH  094%=      5-min Rain = 0
KBR1 141304Z 33011KT 16/16 A3028 RMK A01 T01640155  RH  094%=      5-min Rain = 0
KBR1 141305Z 33010KT 16/16 A3028 RMK A01 T01640155  RH  094%=      5-min Rain = 0
KBR1 141306Z 32010KT 16/15 A3028 RMK A01 T01640154  RH  094%=      5-min Rain = 0
KBR1 141307Z 32010KT 17/15 A3028 RMK A01 T01650154  RH  093%=      5-min Rain = 0
KBR1 141308Z 32010KT 17/15 A3028 RMK A01 T01650153  RH  093%=      5-min Rain = 0
KBR1 141309Z 32010KT 17/15 A3028 RMK A01 T01650152  RH  092%=      5-min Rain = 0
KBR1 141310Z 32008KT 17/15 A3028 RMK A01 T01650153  RH  093%=      5-min Rain = 0
KBR1 141311Z 31011KT 17/15 A3028 RMK A01 T01650152  RH  092%=      5-min Rain = 0
KBR1 141312Z 32009KT 17/15 A3028 RMK A01 T01650152  RH  092%=      5-min Rain = 0
KBR1 141313Z 31009KT 17/15 A3028 RMK A01 T01660152  RH  092%=      5-min Rain = 0
KBR1 141314Z 31009KT 17/15 A3028 RMK A01 T01660152  RH  092%=      5-min Rain = 0
KBR1 141315Z 30008KT 17/15 A3028 RMK A01 T01660152  RH  092%=      5-min Rain = 0
KBR1 141316Z 31009KT 17/15 A3028 RMK A01 T01660152  RH  092%=      5-min Rain = 0
KBR1 141317Z 31008KT 17/15 A3028 RMK A01 T01660151  RH  091%=      5-min Rain = 0
KBR1 141318Z 31008KT 17/15 A3028 RMK A01 T01660151  RH  091%=      5-min Rain = 0
KBR1 141319Z 31007KT 17/15 A3028 RMK A01 T01660151  RH  091%=      5-min Rain = 0
KBR1 141320Z 32008KT 17/15 A3028 RMK A01 T01660151  RH  091%=      5-min Rain = 0
KBR1 141321Z 32008KT 17/15 A3028 RMK A01 T01660152  RH  091%=      5-min Rain = 0
KBR1 141322Z 32008KT 17/15 A3028 RMK A01 T01660152  RH  091%=      5-min Rain = 0
KBR1 141323Z 33009KT 17/15 A3028 RMK A01 T01660152  RH  091%=      5-min Rain = 0
KBR1 141324Z 32009KT 17/15 A3028 RMK A01 T01670152  RH  091%=      5-min Rain = 0
KBR1 141325Z 32009KT 17/15 A3028 RMK A01 T01670152  RH  091%=      5-min Rain = 0
KBR1 141326Z 32008KT 17/15 A3027 RMK A01 T01670152  RH  091%=      5-min Rain = 0
KBR1 141327Z 32008KT 17/15 A3027 RMK A01 T01670152  RH  091%=      5-min Rain = 0
KBR1 141328Z 31007KT 17/15 A3028 RMK A01 T01680153  RH  091%=      5-min Rain = 0
KBR1 141329Z 31008KT 17/15 A3028 RMK A01 T01680153  RH  090%=      5-min Rain = 0
KBR1 141330Z 32006KT 17/15 A3028 RMK A01 T01690153  RH  090%=      5-min Rain = 0
KBR1 141331Z 31006KT 17/15 A3028 RMK A01 T01700154  RH  090%=      5-min Rain = 0
KBR1 141332Z 32006KT 17/15 A3029 RMK A01 T01710154  RH  090%=      5-min Rain = 0
KBR1 141333Z 31005KT 17/16 A3029 RMK A01 T01710155  RH  090%=      5-min Rain = 0
KBR1 141334Z 30005KT 17/16 A3029 RMK A01 T01710155  RH  090%=      5-min Rain = 0
KBR1 141335Z 31006KT 17/16 A3029 RMK A01 T01710156  RH  091%=      5-min Rain = 0
KBR1 141336Z 30005KT 17/16 A3029 RMK A01 T01710155  RH  090%=      5-min Rain = 0
KBR1 141337Z 30005KT 17/16 A3029 RMK A01 T01710155  RH  090%=      5-min Rain = 0
KBR1 141338Z 29006KT 17/16 A3029 RMK A01 T01710156  RH  091%=      5-min Rain = 0
KBR1 141339Z 30006KT 17/16 A303 RMK A01 T01720157  RH  091%=      5-min Rain = 0
KBR1 141340Z 29006KT 17/16 A303 RMK A01 T01720157  RH  091%=      5-min Rain = 0
KBR1 141341Z 30007KT 17/16 A303 RMK A01 T01720157  RH  091%=      5-min Rain = 0
KBR1 141342Z 31007KT 17/16 A303 RMK A01 T01720156  RH  090%=      5-min Rain = 0
KBR1 141343Z 32006KT 17/16 A303 RMK A01 T01720157  RH  091%=      5-min Rain = 0
KBR1 141344Z 32006KT 17/16 A3029 RMK A01 T01720157  RH  091%=      5-min Rain = 0
KBR1 141345Z 32005KT 17/16 A3029 RMK A01 T01720157  RH  091%=      5-min Rain = 0
KBR1 141346Z 31006KT 17/16 A303 RMK A01 T01720158  RH  091%=      5-min Rain = 0
KBR1 141347Z 30005KT 17/16 A303 RMK A01 T01720157  RH  091%=      5-min Rain = 0
KBR1 141348Z 30005KT 17/16 A303 RMK A01 T01720158  RH  091%=      5-min Rain = 0
KBR1 141349Z 30005KT 17/16 A303 RMK A01 T01720158  RH  092%=      5-min Rain = 0
KBR1 141350Z 31005KT 17/16 A303 RMK A01 T01730159  RH  092%=      5-min Rain = 0
KBR1 141351Z 31007KT 17/16 A303 RMK A01 T01720158  RH  091%=      5-min Rain = 0
KBR1 141352Z 31006KT 17/16 A303 RMK A01 T01720158  RH  091%=      5-min Rain = 0
KBR1 141353Z 32005KT 17/16 A303 RMK A01 T01720158  RH  091%=      5-min Rain = 0
KBR1 141354Z 32006KT 17/16 A303 RMK A01 T01730158  RH  091%=      5-min Rain = 0
KBR1 141355Z 32006KT 17/16 A303 RMK A01 T01730157  RH  090%=      5-min Rain = 0
KBR1 141356Z 32006KT 17/16 A303 RMK A01 T01730157  RH  090%=      5-min Rain = 0
KBR1 141357Z 32005KT 17/16 A303 RMK A01 T01740158  RH  091%=      5-min Rain = 0
KBR1 141358Z 32006KT 17/16 A303 RMK A01 T01740160  RH  091%=      5-min Rain = 0
KBR1 141359Z 32006KT 17/16 A303 RMK A01 T01740159  RH  091%=      5-min Rain = 0
KBR1 141400Z 32006KT 18/16 A303 RMK A01 T01750159  RH  091%=      5-min Rain = 0
KBR1 141401Z 32006KT 18/16 A303 RMK A01 T01750160  RH  091%=      5-min Rain = 0
KBR1 141402Z 32007KT 18/16 A303 RMK A01 T01760159  RH  090%=      5-min Rain = 0
KBR1 141403Z 31006KT 18/16 A303 RMK A01 T01760159  RH  089%=      5-min Rain = 0
KBR1 141404Z 31007KT 18/16 A303 RMK A01 T01770158  RH  089%=      5-min Rain = 0
KBR1 141405Z 31007KT 18/16 A3029 RMK A01 T01800162  RH  090%=      5-min Rain = 0
KBR1 141406Z 32008KT 18/16 A303 RMK A01 T01810161  RH  088%=      5-min Rain = 0
KBR1 141407Z 33008KT 18/16 A303 RMK A01 T01830161  RH  087%=      5-min Rain = 0
KBR1 141408Z 33009KT 18/16 A303 RMK A01 T01840160  RH  085%=      5-min Rain = 0
KBR1 141409Z 34012KT 19/16 A303 RMK A01 T01860161  RH  085%=      5-min Rain = 0
KBR1 141410Z 34011KT 19/16 A303 RMK A01 T01870159  RH  084%=      5-min Rain = 0
KBR1 141411Z 34011KT 19/16 A303 RMK A01 T01880160  RH  084%=      5-min Rain = 0
KBR1 141412Z 34009KT 19/16 A303 RMK A01 T01890163  RH  084%=      5-min Rain = 0
KBR1 141413Z 34011KT 19/16 A303 RMK A01 T01910160  RH  082%=      5-min Rain = 0
KBR1 141414Z 34010KT 19/16 A303 RMK A01 T01920161  RH  082%=      5-min Rain = 0
KBR1 141415Z 34011KT 19/16 A303 RMK A01 T01930158  RH  080%=      5-min Rain = 0
KBR1 141416Z 34008KT 19/16 A303 RMK A01 T01940162  RH  082%=      5-min Rain = 0
KBR1 141417Z 34010KT 20/16 A303 RMK A01 T01960160  RH  080%=      5-min Rain = 0
KBR1 141418Z 34008KT 20/16 A303 RMK A01 T01970159  RH  079%=      5-min Rain = 0
KBR1 141419Z 34008KT 20/16 A303 RMK A01 T01980161  RH  079%=      5-min Rain = 0
KBR1 141420Z 35009KT 20/16 A303 RMK A01 T02000156  RH  076%=      5-min Rain = 0
KBR1 141421Z 34008KT 20/15 A303 RMK A01 T02010154  RH  074%=      5-min Rain = 0
KBR1 141422Z 34009KT 20/15 A303 RMK A01 T02010154  RH  074%=      5-min Rain = 0
KBR1 141423Z 34008KT 20/15 A303 RMK A01 T02020153  RH  074%=      5-min Rain = 0
KBR1 141424Z 35007KT 20/15 A303 RMK A01 T02020154  RH  074%=      5-min Rain = 0
KBR1 141425Z 35008KT 20/16 A303 RMK A01 T02030156  RH  074%=      5-min Rain = 0
KBR1 141426Z 35007KT 21/15 A303 RMK A01 T02050154  RH  073%=      5-min Rain = 0
KBR1 141427Z 36008KT 21/15 A303 RMK A01 T02050153  RH  072%=      5-min Rain = 0
KBR1 141428Z 35008KT 21/16 A303 RMK A01 T02060155  RH  073%=      5-min Rain = 0
KBR1 141429Z 36008KT 21/16 A303 RMK A01 T02070157  RH  073%=      5-min Rain = 0
KBR1 141430Z 34009KT 21/16 A303 RMK A01 T02080156  RH  072%=      5-min Rain = 0
KBR1 141431Z 35010KT 21/16 A303 RMK A01 T02080156  RH  072%=      5-min Rain = 0
KBR1 141432Z 36009KT 21/15 A303 RMK A01 T02080154  RH  071%=      5-min Rain = 0
KBR1 141433Z 35007KT 21/16 A303 RMK A01 T02090157  RH  072%=      5-min Rain = 0
KBR1 141434Z 34009KT 21/16 A303 RMK A01 T02100159  RH  073%=      5-min Rain = 0
KBR1 141435Z 33009KT 21/16 A303 RMK A01 T02100155  RH  071%=      5-min Rain = 0
KBR1 141436Z 34011KT 21/16 A303 RMK A01 T02100157  RH  072%=      5-min Rain = 0
KBR1 141437Z 35011KT 21/15 A303 RMK A01 T02090153  RH  070%=      5-min Rain = 0
KBR1 141438Z 34008KT 21/15 A303 RMK A01 T02090154  RH  070%=      5-min Rain = 0
KBR1 141439Z 34009KT 21/15 A303 RMK A01 T02090154  RH  071%=      5-min Rain = 0
KBR1 141440Z 34010KT 21/16 A303 RMK A01 T02090155  RH  071%=      5-min Rain = 0
KBR1 141441Z 34010KT 21/16 A303 RMK A01 T02080155  RH  071%=      5-min Rain = 0
KBR1 141442Z 35011KT 21/15 A303 RMK A01 T02090154  RH  071%=      5-min Rain = 0
KBR1 141443Z 00011KT 21/15 A303 RMK A01 T02100152  RH  070%=      5-min Rain = 0
KBR1 141444Z 36010KT 21/16 A303 RMK A01 T02100155  RH  071%=      5-min Rain = 0
KBR1 141445Z 35007KT 21/16 A303 RMK A01 T02110160  RH  073%=      5-min Rain = 0
KBR1 141446Z 35008KT 21/16 A303 RMK A01 T02110159  RH  072%=      5-min Rain = 0
KBR1 141447Z 35010KT 21/16 A303 RMK A01 T02110157  RH  071%=      5-min Rain = 0
KBR1 141448Z 35011KT 21/16 A303 RMK A01 T02110158  RH  072%=      5-min Rain = 0
KBR1 141449Z 35010KT 21/16 A3031 RMK A01 T02110159  RH  072%=      5-min Rain = 0
KBR1 141450Z 35012KT 21/16 A3031 RMK A01 T02110158  RH  071%=      5-min Rain = 0
KBR1 141451Z 35012KT 21/16 A3031 RMK A01 T02100157  RH  071%=      5-min Rain = 0
KBR1 141452Z 35011KT 21/16 A3031 RMK A01 T02100155  RH  071%=      5-min Rain = 0
KBR1 141453Z 35012KT 21/16 A3031 RMK A01 T02090155  RH  071%=      5-min Rain = 0
KBR1 141454Z 35012KT 21/16 A3031 RMK A01 T02090155  RH  071%=      5-min Rain = 0
KBR1 141455Z 36010KT 21/16 A3031 RMK A01 T02090157  RH  072%=      5-min Rain = 0
KBR1 141456Z 00010KT 21/16 A3031 RMK A01 T02080160  RH  074%=      5-min Rain = 0
KBR1 141457Z 36012KT 21/16 A3031 RMK A01 T02080158  RH  073%=      5-min Rain = 0
KBR1 141458Z 36011KT 21/16 A3031 RMK A01 T02080159  RH  073%=      5-min Rain = 0
KBR1 141459Z 35012KT 21/16 A3031 RMK A01 T02080159  RH  073%=      5-min Rain = 0
KBR1 141500Z 35011KT 21/16 A3031 RMK A01 T02070158  RH  073%=      5-min Rain = 0
KBR1 141501Z 35010KT 21/16 A3031 RMK A01 T02070160  RH  074%=      5-min Rain = 0
KBR1 141502Z 35010KT 21/16 A3031 RMK A01 T02070162  RH  075%=      5-min Rain = 0
KBR1 141503Z 35011KT 21/16 A3031 RMK A01 T02070161  RH  075%=      5-min Rain = 0
KBR1 141504Z 35010KT 21/16 A3031 RMK A01 T02070163  RH  076%=      5-min Rain = 0
KBR1 141505Z 35010KT 21/16 A3031 RMK A01 T02070162  RH  075%=      5-min Rain = 0
KBR1 141506Z 35010KT 21/16 A3031 RMK A01 T02070161  RH  075%=      5-min Rain = 0
KBR1 141507Z 00009KT 21/16 A3031 RMK A01 T02070161  RH  075%=      5-min Rain = 0
KBR1 141508Z 01008KT 21/16 A3031 RMK A01 T02070162  RH  076%=      5-min Rain = 0
KBR1 141509Z 01008KT 21/16 A3031 RMK A01 T02060162  RH  076%=      5-min Rain = 0
KBR1 141510Z 01010KT 21/16 A3031 RMK A01 T02070162  RH  075%=      5-min Rain = 0
KBR1 141511Z 01009KT 21/16 A3031 RMK A01 T02070160  RH  075%=      5-min Rain = 0
KBR1 141512Z 01009KT 21/16 A3031 RMK A01 T02070161  RH  075%=      5-min Rain = 0
KBR1 141513Z 00009KT 21/16 A3031 RMK A01 T02070160  RH  074%=      5-min Rain = 0
KBR1 141514Z 00010KT 21/16 A3031 RMK A01 T02070160  RH  074%=      5-min Rain = 0
KBR1 141515Z 00010KT 21/16 A3032 RMK A01 T02070158  RH  074%=      5-min Rain = 0
KBR1 141516Z 36011KT 21/16 A3032 RMK A01 T02070160  RH  075%=      5-min Rain = 0
KBR1 141517Z 35012KT 21/16 A3032 RMK A01 T02070161  RH  075%=      5-min Rain = 0
KBR1 141518Z 00013KT 21/16 A3032 RMK A01 T02060160  RH  075%=      5-min Rain = 0
KBR1 141519Z 00012KT 21/16 A3032 RMK A01 T02060160  RH  075%=      5-min Rain = 0
KBR1 141520Z 35012G17KT 21/16 A3033 RMK A01 T02050163  RH  076%=      5-min Rain = 0
KBR1 141521Z 36016KT 21/16 A3033 RMK A01 T02050158  RH  074%=      5-min Rain = 0
KBR1 141522Z 35015KT 21/16 A3033 RMK A01 T02050159  RH  075%=      5-min Rain = 0
KBR1 141523Z 36015KT 20/16 A3033 RMK A01 T02040160  RH  076%=      5-min Rain = 0
KBR1 141524Z 00015KT 20/16 A3033 RMK A01 T02040161  RH  076%=      5-min Rain = 0
KBR1 141525Z 00014KT 20/16 A3033 RMK A01 T02030161  RH  077%=      5-min Rain = 0
KBR1 141526Z 35017KT 20/16 A3033 RMK A01 T02030160  RH  076%=      5-min Rain = 0
KBR1 141527Z 36014KT 20/16 A3033 RMK A01 T02030161  RH  077%=      5-min Rain = 0
KBR1 141528Z 01013KT 20/16 A3033 RMK A01 T02030163  RH  078%=      5-min Rain = 0
KBR1 141529Z 01016KT 20/16 A3033 RMK A01 T02030162  RH  077%=      5-min Rain = 0
KBR1 141530Z 00015G20KT 20/16 A3033 RMK A01 T02030162  RH  078%=      5-min Rain = 0
KBR1 141531Z 00018KT 20/16 A3033 RMK A01 T02020160  RH  077%=      5-min Rain = 0
KBR1 141532Z 00015KT 20/16 A3033 RMK A01 T02020163  RH  078%=      5-min Rain = 0
KBR1 141533Z 01016KT 20/16 A3033 RMK A01 T02020163  RH  078%=      5-min Rain = 0
KBR1 141534Z 01016KT 20/16 A3033 RMK A01 T02020161  RH  077%=      5-min Rain = 0
KBR1 141535Z 00017KT 20/16 A3033 RMK A01 T02020161  RH  077%=      5-min Rain = 0
KBR1 141536Z 00018KT 20/16 A3033 RMK A01 T02020159  RH  077%=      5-min Rain = 0
KBR1 141537Z 00018KT 20/16 A3033 RMK A01 T02020160  RH  077%=      5-min Rain = 0
KBR1 141538Z 00017KT 20/16 A3032 RMK A01 T02020160  RH  077%=      5-min Rain = 0
KBR1 141539Z 01015KT 20/16 A3032 RMK A01 T02020162  RH  078%=      5-min Rain = 0
KBR1 141540Z 01017KT 20/16 A3032 RMK A01 T02030160  RH  076%=      5-min Rain = 0
KBR1 141541Z 01017KT 20/16 A3032 RMK A01 T02030159  RH  076%=      5-min Rain = 0
KBR1 141542Z 01018KT 20/16 A3032 RMK A01 T02030159  RH  076%=      5-min Rain = 0
KBR1 141543Z 01018KT 20/16 A3032 RMK A01 T02030159  RH  076%=      5-min Rain = 0
KBR1 141544Z 00019KT 20/16 A3032 RMK A01 T02030159  RH  076%=      5-min Rain = 0
KBR1 141545Z 00017KT 20/16 A3032 RMK A01 T02030160  RH  076%=      5-min Rain = 0
KBR1 141546Z 00017KT 20/16 A3032 RMK A01 T02030159  RH  076%=      5-min Rain = 0
KBR1 141547Z 00018KT 20/16 A3032 RMK A01 T02040161  RH  076%=      5-min Rain = 0
KBR1 141548Z 36016KT 20/16 A3032 RMK A01 T02040160  RH  076%=      5-min Rain = 0
KBR1 141549Z 00017KT 20/16 A3032 RMK A01 T02040160  RH  076%=      5-min Rain = 0
KBR1 141550Z 00018KT 20/16 A3032 RMK A01 T02040161  RH  076%=      5-min Rain = 0
KBR1 141551Z 00018KT 20/16 A3032 RMK A01 T02040159  RH  075%=      5-min Rain = 0
KBR1 141552Z 00018KT 20/16 A3032 RMK A01 T02030158  RH  075%=      5-min Rain = 0
KBR1 141553Z 36018KT 20/16 A3032 RMK A01 T02030158  RH  075%=      5-min Rain = 0
KBR1 141554Z 00017KT 20/16 A3032 RMK A01 T02030160  RH  076%=      5-min Rain = 0
KBR1 141555Z 00016KT 20/16 A3033 RMK A01 T02040161  RH  076%=      5-min Rain = 0
KBR1 141556Z 00017KT 21/16 A3033 RMK A01 T02050161  RH  076%=      5-min Rain = 0
KBR1 141557Z 36017KT 21/16 A3033 RMK A01 T02050161  RH  076%=      5-min Rain = 0
KBR1 141558Z 00019KT 20/16 A3033 RMK A01 T02040160  RH  076%=      5-min Rain = 0
KBR1 141559Z 00017KT 20/16 A3033 RMK A01 T02030162  RH  077%=      5-min Rain = 0
KBR1 141600Z 36017KT 20/16 A3033 RMK A01 T02030160  RH  076%=      5-min Rain = 0
KBR1 141601Z 36017KT 20/16 A3032 RMK A01 T02020160  RH  076%=      5-min Rain = 0
KBR1 141602Z 35016KT 20/16 A3032 RMK A01 T02020161  RH  077%=      5-min Rain = 0
KBR1 141603Z 36017KT 20/16 A3032 RMK A01 T02020161  RH  077%=      5-min Rain = 0
KBR1 141604Z 00016KT 20/16 A3032 RMK A01 T02020161  RH  077%=      5-min Rain = 0
KBR1 141605Z 00017KT 20/16 A3032 RMK A01 T02010161  RH  077%=      5-min Rain = 0
KBR1 141606Z 00019KT 20/16 A3032 RMK A01 T02010161  RH  077%=      5-min Rain = 0
KBR1 141607Z 00018KT 20/16 A3032 RMK A01 T02010161  RH  078%=      5-min Rain = 0
KBR1 141608Z 36019KT 20/16 A3032 RMK A01 T01990162  RH  079%=      5-min Rain = 0
KBR1 141609Z 00017KT 20/16 A3032 RMK A01 T01970163  RH  080%=      5-min Rain = 0.01
KBR1 141610Z 36016KT 20/16 A3032 RMK A01 T01960163  RH  081%=      5-min Rain = 0
KBR1 141611Z 00016KT 20/17 A3032 RMK A01 T01950165  RH  083%=      5-min Rain = 0
KBR1 141612Z 00015KT 19/16 A3032 RMK A01 T01940164  RH  083%=      5-min Rain = 0
KBR1 141613Z 36016KT 19/16 A3032 RMK A01 T01930164  RH  083%=      5-min Rain = 0
KBR1 141614Z 36015KT 19/16 A3032 RMK A01 T01940164  RH  083%=      5-min Rain = 0
KBR1 141615Z 36017KT 19/17 A3033 RMK A01 T01930165  RH  083%=      5-min Rain = 0
KBR1 141616Z 36017KT 19/16 A3032 RMK A01 T01930164  RH  083%=      5-min Rain = 0
KBR1 141617Z 36016KT 19/16 A3032 RMK A01 T01930163  RH  083%=      5-min Rain = 0
KBR1 141618Z 00014KT 19/16 A3032 RMK A01 T01930164  RH  083%=      5-min Rain = 0
KBR1 141619Z 00017KT 19/16 A3032 RMK A01 T01930163  RH  083%=      5-min Rain = 0.01
KBR1 141620Z 00017KT 19/16 A3033 RMK A01 T01920163  RH  083%=      5-min Rain = 0
KBR1 141621Z 00016KT 19/16 A3033 RMK A01 T01910163  RH  084%=      5-min Rain = 0
KBR1 141622Z 36014KT 19/16 A3033 RMK A01 T01910163  RH  084%=      5-min Rain = 0
KBR1 141623Z 35014KT 19/17 A3033 RMK A01 T01910165  RH  085%=      5-min Rain = 0.01
KBR1 141624Z 34015KT 19/16 A3033 RMK A01 T01910163  RH  084%=      5-min Rain = 0
KBR1 141625Z 34013KT 19/17 A3034 RMK A01 T01910165  RH  084%=      5-min Rain = 0.01
KBR1 141626Z 34010KT 19/17 A3034 RMK A01 T01920166  RH  085%=      5-min Rain = 0
KBR1 141627Z 34010KT 19/17 A3034 RMK A01 T01910168  RH  086%=      5-min Rain = 0
KBR1 141628Z 34012G17KT 19/17 A3034 RMK A01 T01920167  RH  086%=      5-min Rain = 0
KBR1 141629Z 35011KT 19/16 A3034 RMK A01 T01920163  RH  083%=      5-min Rain = 0
KBR1 141630Z 35011KT 19/17 A3034 RMK A01 T01920165  RH  084%=      5-min Rain = 0
KBR1 141631Z 00010KT 19/17 A3033 RMK A01 T01930167  RH  085%=      5-min Rain = 0
KBR1 141632Z 00010KT 19/17 A3033 RMK A01 T01930168  RH  085%=      5-min Rain = 0
KBR1 141633Z 01011KT 19/17 A3033 RMK A01 T01930166  RH  084%=      5-min Rain = 0
KBR1 141634Z 01011KT 19/17 A3033 RMK A01 T01930165  RH  084%=      5-min Rain = 0
KBR1 141635Z 01011KT 19/17 A3033 RMK A01 T01940165  RH  083%=      5-min Rain = 0
KBR1 141636Z 00011KT 19/17 A3033 RMK A01 T01940166  RH  084%=      5-min Rain = 0
KBR1 141637Z 01010KT 20/17 A3033 RMK A01 T01950167  RH  084%=      5-min Rain = 0
KBR1 141638Z 01010KT 20/17 A3033 RMK A01 T01960170  RH  085%=      5-min Rain = 0
KBR1 141639Z 01009KT 20/17 A3033 RMK A01 T01960168  RH  084%=      5-min Rain = 0
KBR1 141640Z 01009KT 20/17 A3033 RMK A01 T01970168  RH  084%=      5-min Rain = 0
KBR1 141641Z 01008KT 20/17 A3033 RMK A01 T01980167  RH  083%=      5-min Rain = 0
KBR1 141642Z 01008KT 20/17 A3033 RMK A01 T01990168  RH  082%=      5-min Rain = 0
KBR1 141643Z 02007KT 20/18 A3033 RMK A01 T02030176  RH  085%=      5-min Rain = 0
KBR1 141644Z 02008KT 21/18 A3032 RMK A01 T02050175  RH  083%=      5-min Rain = 0
KBR1 141645Z 01007KT 21/18 A3032 RMK A01 T02080175  RH  081%=      5-min Rain = 0
KBR1 141646Z 02007KT 21/18 A3032 RMK A01 T02100175  RH  081%=      5-min Rain = 0
KBR1 141647Z 02007KT 21/17 A3032 RMK A01 T02110171  RH  077%=      5-min Rain = 0
KBR1 141648Z 01005KT 21/17 A3032 RMK A01 T02130172  RH  077%=      5-min Rain = 0
KBR1 141649Z 35005KT 21/17 A3032 RMK A01 T02140170  RH  076%=      5-min Rain = 0
KBR1 141650Z 35005KT 21/17 A3032 RMK A01 T02140169  RH  076%=      5-min Rain = 0
KBR1 141651Z 32006KT 21/17 A3032 RMK A01 T02140174  RH  078%=      5-min Rain = 0
KBR1 141652Z 33006KT 21/17 A3032 RMK A01 T02140168  RH  075%=      5-min Rain = 0
KBR1 141653Z 33005KT 21/17 A3032 RMK A01 T02140171  RH  077%=      5-min Rain = 0
KBR1 141654Z 33006KT 21/17 A3032 RMK A01 T02140170  RH  076%=      5-min Rain = 0
KBR1 141655Z 34006KT 21/17 A3032 RMK A01 T02140167  RH  074%=      5-min Rain = 0
KBR1 141656Z 36006KT 21/17 A3031 RMK A01 T02140166  RH  074%=      5-min Rain = 0
KBR1 141657Z 01005KT 21/17 A3031 RMK A01 T02140166  RH  074%=      5-min Rain = 0
KBR1 141658Z 01006KT 22/17 A3031 RMK A01 T02160167  RH  074%=      5-min Rain = 0
KBR1 141659Z 01006KT 22/17 A3031 RMK A01 T02170169  RH  074%=      5-min Rain = 0
KBR1 141700Z 01006KT 22/17 A3031 RMK A01 T02190166  RH  072%=      5-min Rain = 0
KBR1 141701Z 36006KT 22/17 A3031 RMK A01 T02200167  RH  072%=      5-min Rain = 0
KBR1 141702Z 01007KT 22/17 A3031 RMK A01 T02210171  RH  073%=      5-min Rain = 0
KBR1 141703Z 00007KT 22/17 A303 RMK A01 T02210166  RH  071%=      5-min Rain = 0
KBR1 141704Z 01007KT 22/17 A303 RMK A01 T02200165  RH  071%=      5-min Rain = 0
KBR1 141705Z 01006KT 22/17 A303 RMK A01 T02200165  RH  071%=      5-min Rain = 0
KBR1 141706Z 00005KT 22/17 A303 RMK A01 T02200166  RH  072%=      5-min Rain = 0
KBR1 141707Z 01005KT 22/17 A303 RMK A01 T02210168  RH  072%=      5-min Rain = 0
KBR1 141708Z 01005KT 22/17 A303 RMK A01 T02210165  RH  071%=      5-min Rain = 0
KBR1 141709Z 35004KT 22/17 A3029 RMK A01 T02200166  RH  071%=      5-min Rain = 0
KBR1 141710Z 35003KT 22/17 A3029 RMK A01 T02200166  RH  071%=      5-min Rain = 0
KBR1 141711Z 02003KT 22/17 A3029 RMK A01 T02200166  RH  072%=      5-min Rain = 0
KBR1 141712Z 03003KT 22/16 A3029 RMK A01 T02200159  RH  069%=      5-min Rain = 0
KBR1 141713Z 03003KT 22/16 A3029 RMK A01 T02210162  RH  069%=      5-min Rain = 0
KBR1 141714Z 03003KT 22/16 A3029 RMK A01 T02220164  RH  070%=      5-min Rain = 0
KBR1 141715Z 03003KT 22/16 A303 RMK A01 T02220164  RH  069%=      5-min Rain = 0
KBR1 141716Z 02003KT 22/16 A303 RMK A01 T02230164  RH  069%=      5-min Rain = 0
KBR1 141717Z 01001KT 22/16 A303 RMK A01 T02240163  RH  068%=      5-min Rain = 0
KBR1 141718Z 03001KT 22/16 A303 RMK A01 T02240163  RH  068%=      5-min Rain = 0
KBR1 141719Z 04003KT 23/16 A303 RMK A01 T02250161  RH  067%=      5-min Rain = 0
KBR1 141720Z 02001KT 23/16 A303 RMK A01 T02260162  RH  067%=      5-min Rain = 0
KBR1 141721Z 01001KT 23/16 A303 RMK A01 T02270163  RH  067%=      5-min Rain = 0
KBR1 141722Z 00001KT 23/16 A303 RMK A01 T02290162  RH  066%=      5-min Rain = 0
KBR1 141723Z 36001KT 23/17 A303 RMK A01 T02300165  RH  066%=      5-min Rain = 0
KBR1 141724Z 23000KT 23/17 A303 RMK A01 T02320170  RH  068%=      5-min Rain = 0
KBR1 141725Z 19001KT 24/17 A303 RMK A01 T02350167  RH  065%=      5-min Rain = 0
KBR1 141726Z 24001KT 24/16 A303 RMK A01 T02360163  RH  063%=      5-min Rain = 0
KBR1 141727Z 23003KT 24/16 A3029 RMK A01 T02380162  RH  062%=      5-min Rain = 0
KBR1 141728Z 24003KT 24/16 A3029 RMK A01 T02350158  RH  062%=      5-min Rain = 0
KBR1 141729Z 23001KT 23/16 A303 RMK A01 T02340157  RH  062%=      5-min Rain = 0
KBR1 141730Z 32000KT 23/16 A303 RMK A01 T02330162  RH  064%=      5-min Rain = 0
KBR1 141731Z 22000KT 24/16 A303 RMK A01 T02350162  RH  063%=      5-min Rain = 0
KBR1 141732Z 06000KT 24/16 A303 RMK A01 T02360161  RH  063%=      5-min Rain = 0
KBR1 141733Z 14001KT 24/17 A303 RMK A01 T02390172  RH  066%=      5-min Rain = 0
KBR1 141734Z 11002KT 24/17 A303 RMK A01 T02420165  RH  062%=      5-min Rain = 0
KBR1 141735Z 08002KT 24/16 A303 RMK A01 T02430159  RH  059%=      5-min Rain = 0
KBR1 141736Z 05001KT 24/16 A303 RMK A01 T02410160  RH  061%=      5-min Rain = 0
KBR1 141737Z 07002KT 24/16 A303 RMK A01 T02400161  RH  061%=      5-min Rain = 0
KBR1 141738Z 11003KT 24/16 A303 RMK A01 T02400162  RH  062%=      5-min Rain = 0
KBR1 141739Z 18004KT 24/16 A303 RMK A01 T02400161  RH  061%=      5-min Rain = 0
KBR1 141740Z 18003KT 24/16 A303 RMK A01 T02410158  RH  060%=      5-min Rain = 0
KBR1 141741Z 17004KT 24/16 A303 RMK A01 T02420161  RH  060%=      5-min Rain = 0
KBR1 141742Z 16003KT 24/16 A303 RMK A01 T02430163  RH  061%=      5-min Rain = 0
KBR1 141743Z 15005KT 24/16 A3029 RMK A01 T02440160  RH  060%=      5-min Rain = 0
KBR1 141744Z 15003KT 24/16 A3029 RMK A01 T02440162  RH  060%=      5-min Rain = 0
KBR1 141745Z 13003KT 25/16 A3029 RMK A01 T02450162  RH  060%=      5-min Rain = 0
KBR1 141746Z 18002KT 25/16 A3029 RMK A01 T02450161  RH  059%=      5-min Rain = 0
KBR1 141747Z 17002KT 25/16 A3029 RMK A01 T02460159  RH  059%=      5-min Rain = 0
KBR1 141748Z 10004KT 25/17 A3029 RMK A01 T02460165  RH  060%=      5-min Rain = 0
KBR1 141749Z 09004KT 25/16 A3029 RMK A01 T02470164  RH  060%=      5-min Rain = 0
KBR1 141750Z 08003KT 25/16 A3029 RMK A01 T02460157  RH  058%=      5-min Rain = 0
KBR1 141751Z 36001KT 24/16 A3029 RMK A01 T02430159  RH  059%=      5-min Rain = 0
KBR1 141752Z 03002KT 24/17 A3029 RMK A01 T02430167  RH  063%=      5-min Rain = 0
KBR1 141753Z 08002KT 25/17 A3029 RMK A01 T02460170  RH  063%=      5-min Rain = 0
KBR1 141754Z 14001KT 25/16 A3029 RMK A01 T02470162  RH  059%=      5-min Rain = 0
KBR1 141755Z 16002KT 25/16 A3029 RMK A01 T02470161  RH  059%=      5-min Rain = 0
KBR1 141756Z 15002KT 25/17 A3029 RMK A01 T02470165  RH  060%=      5-min Rain = 0
KBR1 141757Z 19003KT 25/17 A3029 RMK A01 T02470169  RH  062%=      5-min Rain = 0
KBR1 141758Z 24002KT 25/16 A3028 RMK A01 T02490160  RH  058%=      5-min Rain = 0
KBR1 141759Z 25002KT 25/16 A3028 RMK A01 T02470160  RH  058%=      5-min Rain = 0
KBR1 141800Z 24002KT 24/16 A3028 RMK A01 T02440160  RH  059%=      5-min Rain = 0
KBR1 141801Z 22002KT 24/16 A3028 RMK A01 T02430162  RH  060%=      5-min Rain = 0
KBR1 141802Z 18006KT 25/18 A3028 RMK A01 T02460176  RH  065%=      5-min Rain = 0
KBR1 141803Z 17006KT 25/17 A3028 RMK A01 T02500165  RH  059%=      5-min Rain = 0
KBR1 141804Z 18001KT 25/16 A3028 RMK A01 T02480162  RH  059%=      5-min Rain = 0
KBR1 141805Z 24001KT 25/16 A3028 RMK A01 T02470161  RH  059%=      5-min Rain = 0
KBR1 141806Z 24002KT 25/16 A3028 RMK A01 T02460164  RH  060%=      5-min Rain = 0
KBR1 141807Z 20003KT 25/17 A3028 RMK A01 T02470168  RH  061%=      5-min Rain = 0
KBR1 141808Z 16003KT 25/16 A3028 RMK A01 T02480162  RH  059%=      5-min Rain = 0
KBR1 141809Z 22006KT 25/17 A3028 RMK A01 T02470165  RH  060%=      5-min Rain = 0
KBR1 141810Z 24004KT 25/16 A3028 RMK A01 T02470164  RH  060%=      5-min Rain = 0
KBR1 141811Z 26004KT 25/16 A3028 RMK A01 T02470163  RH  060%=      5-min Rain = 0
KBR1 141812Z 25004KT 25/16 A3028 RMK A01 T02470160  RH  059%=      5-min Rain = 0
KBR1 141813Z 22003KT 25/16 A3028 RMK A01 T02470155  RH  057%=      5-min Rain = 0
KBR1 141814Z 18005KT 25/16 A3028 RMK A01 T02460157  RH  057%=      5-min Rain = 0
KBR1 141815Z 17005KT 25/16 A3028 RMK A01 T02470156  RH  057%=      5-min Rain = 0
KBR1 141816Z 16005KT 25/16 A3028 RMK A01 T02490155  RH  056%=      5-min Rain = 0
KBR1 141817Z 18005KT 25/16 A3027 RMK A01 T02500159  RH  057%=      5-min Rain = 0
KBR1 141818Z 17004KT 25/16 A3027 RMK A01 T02520162  RH  057%=      5-min Rain = 0
KBR1 141819Z 22006KT 26/16 A3027 RMK A01 T02550159  RH  055%=      5-min Rain = 0
KBR1 141820Z 21005KT 26/16 A3027 RMK A01 T02550156  RH  054%=      5-min Rain = 0
KBR1 141821Z 23005KT 25/16 A3027 RMK A01 T02540156  RH  055%=      5-min Rain = 0
KBR1 141822Z 23008KT 25/16 A3027 RMK A01 T02540157  RH  055%=      5-min Rain = 0
KBR1 141823Z 23006KT 25/15 A3027 RMK A01 T02530153  RH  054%=      5-min Rain = 0
KBR1 141824Z 21005KT 25/15 A3027 RMK A01 T02520154  RH  054%=      5-min Rain = 0
KBR1 141825Z 21004KT 25/15 A3027 RMK A01 T02520153  RH  054%=      5-min Rain = 0
KBR1 141826Z 22004KT 25/15 A3027 RMK A01 T02510149  RH  053%=      5-min Rain = 0
KBR1 141827Z 22006KT 25/16 A3027 RMK A01 T02520160  RH  057%=      5-min Rain = 0.01
KBR1 141828Z 24008KT 26/16 A3027 RMK A01 T02560155  RH  054%=      5-min Rain = 0
KBR1 141829Z 23007KT 26/15 A3027 RMK A01 T02560154  RH  053%=      5-min Rain = 0
KBR1 141830Z 22005KT 26/15 A3027 RMK A01 T02560151  RH  052%=      5-min Rain = 0
KBR1 141831Z 21006KT 26/15 A3027 RMK A01 T02560150  RH  052%=      5-min Rain = 0
KBR1 141832Z 20005KT 26/15 A3027 RMK A01 T02560150  RH  052%=      5-min Rain = 0
KBR1 141833Z 19004KT 26/15 A3027 RMK A01 T02550150  RH  052%=      5-min Rain = 0
KBR1 141834Z 21005KT 25/15 A3026 RMK A01 T02540151  RH  053%=      5-min Rain = 0
KBR1 141835Z 18006KT 25/15 A3026 RMK A01 T02540147  RH  051%=      5-min Rain = 0
KBR1 141836Z 20006KT 26/16 A3026 RMK A01 T02550155  RH  054%=      5-min Rain = 0
KBR1 141837Z 24007KT 26/15 A3026 RMK A01 T02570153  RH  053%=      5-min Rain = 0
KBR1 141838Z 24005KT 26/15 A3026 RMK A01 T02560152  RH  052%=      5-min Rain = 0
KBR1 141839Z 20007KT 26/15 A3026 RMK A01 T02560150  RH  052%=      5-min Rain = 0
KBR1 141840Z 21007KT 26/14 A3026 RMK A01 T02550143  RH  050%=      5-min Rain = 0
KBR1 141841Z 21007KT 25/15 A3026 RMK A01 T02540149  RH  052%=      5-min Rain = 0
KBR1 141842Z 22006KT 26/16 A3026 RMK A01 T02550157  RH  055%=      5-min Rain = 0
KBR1 141843Z 20007KT 26/16 A3026 RMK A01 T02550160  RH  056%=      5-min Rain = 0
KBR1 141844Z 22009KT 26/17 A3026 RMK A01 T02580166  RH  057%=      5-min Rain = 0
KBR1 141845Z 20009KT 26/17 A3026 RMK A01 T02610166  RH  056%=      5-min Rain = 0
KBR1 141846Z 20006KT 26/17 A3026 RMK A01 T02600165  RH  056%=      5-min Rain = 0
KBR1 141847Z 19008KT 26/17 A3026 RMK A01 T02600165  RH  056%=      5-min Rain = 0
KBR1 141848Z 19009KT 26/16 A3026 RMK A01 T02610162  RH  055%=      5-min Rain = 0
KBR1 141849Z 21010KT 26/16 A3026 RMK A01 T02610162  RH  055%=      5-min Rain = 0
KBR1 141850Z 23010KT 26/15 A3026 RMK A01 T02610147  RH  049%=      5-min Rain = 0
KBR1 141851Z 23009KT 26/15 A3026 RMK A01 T02580146  RH  050%=      5-min Rain = 0
KBR1 141852Z 22008KT 26/15 A3026 RMK A01 T02570150  RH  052%=      5-min Rain = 0
KBR1 141853Z 23008KT 26/15 A3026 RMK A01 T02570151  RH  052%=      5-min Rain = 0
KBR1 141854Z 21005KT 26/15 A3026 RMK A01 T02570150  RH  052%=      5-min Rain = 0
KBR1 141855Z 19006KT 26/15 A3026 RMK A01 T02560151  RH  052%=      5-min Rain = 0
KBR1 141856Z 23009KT 26/15 A3026 RMK A01 T02570154  RH  053%=      5-min Rain = 0
KBR1 141857Z 22009KT 26/15 A3026 RMK A01 T02590152  RH  052%=      5-min Rain = 0
KBR1 141858Z 22007KT 26/15 A3026 RMK A01 T02600151  RH  051%=      5-min Rain = 0
KBR1 141859Z 22007KT 26/15 A3025 RMK A01 T02590154  RH  052%=      5-min Rain = 0
KBR1 141900Z 21010KT 26/16 A3025 RMK A01 T02610155  RH  052%=      5-min Rain = 0
KBR1 141901Z 22008KT 26/15 A3026 RMK A01 T02610151  RH  051%=      5-min Rain = 0
KBR1 141902Z 24009KT 26/15 A3025 RMK A01 T02600148  RH  050%=      5-min Rain = 0
KBR1 141903Z 24008KT 26/15 A3025 RMK A01 T02580146  RH  050%=      5-min Rain = 0
KBR1 141904Z 23009KT 26/15 A3025 RMK A01 T02570151  RH  052%=      5-min Rain = 0
KBR1 141905Z 24011KT 26/15 A3025 RMK A01 T02600151  RH  051%=      5-min Rain = 0
KBR1 141906Z 23009KT 26/15 A3025 RMK A01 T02600150  RH  051%=      5-min Rain = 0
KBR1 141907Z 24006KT 26/15 A3025 RMK A01 T02580148  RH  050%=      5-min Rain = 0
KBR1 141908Z 22009KT 26/15 A3025 RMK A01 T02580152  RH  052%=      5-min Rain = 0
KBR1 141909Z 22011KT 26/15 A3025 RMK A01 T02600153  RH  052%=      5-min Rain = 0
KBR1 141910Z 22010KT 26/15 A3025 RMK A01 T02620152  RH  051%=      5-min Rain = 0
KBR1 141911Z 22011KT 27/15 A3025 RMK A01 T02650154  RH  051%=      5-min Rain = 0
KBR1 141912Z 23011KT 27/15 A3025 RMK A01 T02660148  RH  048%=      5-min Rain = 0
KBR1 141913Z 22008KT 27/15 A3025 RMK A01 T02660148  RH  048%=      5-min Rain = 0
KBR1 141914Z 22009KT 27/15 A3025 RMK A01 T02650147  RH  048%=      5-min Rain = 0
KBR1 141915Z 22007KT 26/15 A3025 RMK A01 T02640149  RH  049%=      5-min Rain = 0
KBR1 141916Z 22006KT 26/15 A3025 RMK A01 T02640153  RH  051%=      5-min Rain = 0
KBR1 141917Z 21008KT 27/15 A3025 RMK A01 T02660152  RH  049%=      5-min Rain = 0
KBR1 141918Z 20008KT 27/15 A3025 RMK A01 T02670150  RH  049%=      5-min Rain = 0
KBR1 141919Z 25006KT 27/16 A3025 RMK A01 T02660156  RH  051%=      5-min Rain = 0
KBR1 141920Z 25008KT 27/15 A3025 RMK A01 T02680151  RH  049%=      5-min Rain = 0
KBR1 141921Z 23007KT 27/16 A3025 RMK A01 T02670156  RH  050%=      5-min Rain = 0
KBR1 141922Z 22008KT 27/16 A3025 RMK A01 T02670157  RH  051%=      5-min Rain = 0
KBR1 141923Z 23006KT 27/16 A3025 RMK A01 T02710157  RH  050%=      5-min Rain = 0
KBR1 141924Z 25007KT 27/16 A3025 RMK A01 T02740158  RH  049%=      5-min Rain = 0
KBR1 141925Z 25009KT 28/15 A3025 RMK A01 T02750145  RH  045%=      5-min Rain = 0
KBR1 141926Z 26008KT 27/14 A3025 RMK A01 T02710141  RH  045%=      5-min Rain = 0
KBR1 141927Z 27008KT 27/15 A3025 RMK A01 T02680146  RH  047%=      5-min Rain = 0
KBR1 141928Z 25008KT 27/15 A3025 RMK A01 T02670153  RH  049%=      5-min Rain = 0
KBR1 141929Z 22008KT 27/16 A3024 RMK A01 T02690157  RH  050%=      5-min Rain = 0
KBR1 141930Z 24008KT 27/15 A3024 RMK A01 T02720154  RH  049%=      5-min Rain = 0
KBR1 141931Z 25009KT 27/14 A3024 RMK A01 T02730141  RH  044%=      5-min Rain = 0
KBR1 141932Z 26008KT 27/14 A3024 RMK A01 T02700140  RH  045%=      5-min Rain = 0
KBR1 141933Z 26007KT 27/14 A3024 RMK A01 T02680141  RH  045%=      5-min Rain = 0
KBR1 141934Z 25008KT 27/15 A3024 RMK A01 T02670149  RH  049%=      5-min Rain = 0
KBR1 141935Z 24009KT 27/15 A3024 RMK A01 T02690152  RH  049%=      5-min Rain = 0
KBR1 141936Z 24006KT 27/16 A3024 RMK A01 T02700155  RH  049%=      5-min Rain = 0
KBR1 141937Z 23008KT 27/15 A3024 RMK A01 T02720154  RH  048%=      5-min Rain = 0
KBR1 141938Z 23010KT 27/15 A3024 RMK A01 T02720148  RH  047%=      5-min Rain = 0
KBR1 141939Z 26009KT 27/15 A3024 RMK A01 T02720151  RH  048%=      5-min Rain = 0
KBR1 141940Z 26009KT 27/15 A3024 RMK A01 T02740154  RH  048%=      5-min Rain = 0
KBR1 141941Z 26007KT 27/15 A3024 RMK A01 T02740152  RH  047%=      5-min Rain = 0
KBR1 141942Z 25010KT 27/15 A3024 RMK A01 T02740150  RH  047%=      5-min Rain = 0
KBR1 141943Z 26007KT 28/15 A3024 RMK A01 T02750145  RH  045%=      5-min Rain = 0
KBR1 141944Z 24007KT 27/15 A3024 RMK A01 T02740151  RH  047%=      5-min Rain = 0
KBR1 141945Z 25009KT 28/15 A3024 RMK A01 T02750149  RH  046%=      5-min Rain = 0
KBR1 141946Z 26009KT 28/15 A3024 RMK A01 T02760149  RH  046%=      5-min Rain = 0
KBR1 141947Z 26009KT 28/15 A3023 RMK A01 T02750149  RH  046%=      5-min Rain = 0
KBR1 141948Z 27006KT 27/15 A3023 RMK A01 T02740147  RH  046%=      5-min Rain = 0
KBR1 141949Z 25007KT 27/16 A3023 RMK A01 T02740155  RH  048%=      5-min Rain = 0
KBR1 141950Z 22008KT 28/15 A3023 RMK A01 T02780152  RH  046%=      5-min Rain = 0
KBR1 141951Z 24010KT 28/15 A3023 RMK A01 T02790150  RH  045%=      5-min Rain = 0
KBR1 141952Z 23009KT 28/15 A3023 RMK A01 T02800148  RH  045%=      5-min Rain = 0
KBR1 141953Z 22007KT 28/15 A3023 RMK A01 T02790145  RH  044%=      5-min Rain = 0
KBR1 141954Z 22009KT 28/15 A3023 RMK A01 T02790146  RH  044%=      5-min Rain = 0
KBR1 141955Z 24010KT 28/15 A3023 RMK A01 T02800145  RH  043%=      5-min Rain = 0
KBR1 141956Z 24009KT 28/14 A3023 RMK A01 T02820143  RH  042%=      5-min Rain = 0
KBR1 141957Z 22008KT 28/14 A3023 RMK A01 T02810141  RH  042%=      5-min Rain = 0
KBR1 141958Z 24010KT 28/14 A3023 RMK A01 T02790143  RH  043%=      5-min Rain = 0
KBR1 141959Z 24011KT 28/14 A3022 RMK A01 T02800143  RH  043%=      5-min Rain = 0
KBR1 142000Z 24010KT 28/14 A3022 RMK A01 T02810138  RH  042%=      5-min Rain = 0
KBR1 142001Z 24008KT 28/14 A3022 RMK A01 T02810137  RH  041%=      5-min Rain = 0
KBR1 142002Z 26008KT 28/14 A3022 RMK A01 T02810139  RH  042%=      5-min Rain = 0
KBR1 142003Z 25011KT 28/15 A3022 RMK A01 T02820146  RH  044%=      5-min Rain = 0
KBR1 142004Z 26010KT 28/14 A3022 RMK A01 T02840142  RH  042%=      5-min Rain = 0
KBR1 142005Z 26008G14KT 28/14 A3022 RMK A01 T02830142  RH  042%=      5-min Rain = 0
KBR1 142006Z 24009KT 28/14 A3022 RMK A01 T02840144  RH  042%=      5-min Rain = 0
KBR1 142007Z 25010KT 28/15 A3022 RMK A01 T02830146  RH  043%=      5-min Rain = 0
KBR1 142008Z 27010KT 28/15 A3022 RMK A01 T02840145  RH  043%=      5-min Rain = 0
KBR1 142009Z 26007KT 28/15 A3022 RMK A01 T02830146  RH  043%=      5-min Rain = 0
KBR1 142010Z 23008KT 28/15 A3022 RMK A01 T02830151  RH  045%=      5-min Rain = 0
KBR1 142011Z 25010KT 29/15 A3022 RMK A01 T02860154  RH  045%=      5-min Rain = 0
KBR1 142012Z 26009KT 29/15 A3022 RMK A01 T02890147  RH  042%=      5-min Rain = 0
KBR1 142013Z 24010KT 29/14 A3022 RMK A01 T02870142  RH  041%=      5-min Rain = 0
KBR1 142014Z 24012KT 29/14 A3022 RMK A01 T02860144  RH  042%=      5-min Rain = 0
KBR1 142015Z 23010KT 29/14 A3022 RMK A01 T02860139  RH  040%=      5-min Rain = 0
KBR1 142016Z 23007KT 29/14 A3022 RMK A01 T02850136  RH  040%=      5-min Rain = 0
KBR1 142017Z 23008KT 28/14 A3022 RMK A01 T02820142  RH  042%=      5-min Rain = 0
KBR1 142018Z 23008KT 29/16 A3021 RMK A01 T02860157  RH  046%=      5-min Rain = 0
KBR1 142019Z 26007KT 29/16 A3021 RMK A01 T02900156  RH  044%=      5-min Rain = 0
KBR1 142020Z 27007KT 29/15 A3021 RMK A01 T02910153  RH  043%=      5-min Rain = 0
KBR1 142021Z 28010KT 29/15 A3021 RMK A01 T02910149  RH  042%=      5-min Rain = 0
KBR1 142022Z 28007KT 29/14 A3021 RMK A01 T02890138  RH  040%=      5-min Rain = 0
KBR1 142023Z 25008G13KT 29/14 A3021 RMK A01 T02850142  RH  041%=      5-min Rain = 0
KBR1 142024Z 25010KT 29/15 A3021 RMK A01 T02850149  RH  043%=      5-min Rain = 0
KBR1 142025Z 23011KT 29/15 A3021 RMK A01 T02880154  RH  044%=      5-min Rain = 0
KBR1 142026Z 23010KT 29/15 A3021 RMK A01 T02890149  RH  042%=      5-min Rain = 0
KBR1 142027Z 22011KT 29/15 A3021 RMK A01 T02890149  RH  043%=      5-min Rain = 0
KBR1 142028Z 24009KT 29/15 A3021 RMK A01 T02880150  RH  043%=      5-min Rain = 0
KBR1 142029Z 25009KT 29/15 A3021 RMK A01 T02870147  RH  043%=      5-min Rain = 0
KBR1 142030Z 27008KT 29/15 A3021 RMK A01 T02870147  RH  043%=      5-min Rain = 0
KBR1 142031Z 27007KT 29/14 A3021 RMK A01 T02860144  RH  042%=      5-min Rain = 0
KBR1 142032Z 23007KT 29/15 A3021 RMK A01 T02850152  RH  044%=      5-min Rain = 0
KBR1 142033Z 26008KT 29/16 A3021 RMK A01 T02880159  RH  045%=      5-min Rain = 0
KBR1 142034Z 26008KT 29/15 A3021 RMK A01 T02910151  RH  043%=      5-min Rain = 0
KBR1 142035Z 27009KT 29/15 A3021 RMK A01 T02900152  RH  043%=      5-min Rain = 0
KBR1 142036Z 26009KT 29/16 A3021 RMK A01 T02900155  RH  044%=      5-min Rain = 0
KBR1 142037Z 27008KT 29/15 A3021 RMK A01 T02920152  RH  043%=      5-min Rain = 0
KBR1 142038Z 27008KT 29/15 A3021 RMK A01 T02910149  RH  042%=      5-min Rain = 0
KBR1 142039Z 26012KT 29/15 A302 RMK A01 T02890153  RH  044%=      5-min Rain = 0
KBR1 142040Z 24010KT 29/15 A302 RMK A01 T02890152  RH  043%=      5-min Rain = 0
KBR1 142041Z 24011KT 29/15 A302 RMK A01 T02900147  RH  042%=      5-min Rain = 0
KBR1 142042Z 24008KT 29/14 A302 RMK A01 T02890141  RH  040%=      5-min Rain = 0
KBR1 142043Z 24007KT 29/14 A302 RMK A01 T02870144  RH  042%=      5-min Rain = 0
KBR1 142044Z 24008KT 29/15 A302 RMK A01 T02870151  RH  044%=      5-min Rain = 0
KBR1 142045Z 23010KT 29/15 A302 RMK A01 T02880152  RH  043%=      5-min Rain = 0
KBR1 142046Z 23009KT 29/15 A302 RMK A01 T02890154  RH  044%=      5-min Rain = 0
KBR1 142047Z 23007KT 29/15 A302 RMK A01 T02890147  RH  042%=      5-min Rain = 0
KBR1 142048Z 23012KT 29/16 A302 RMK A01 T02880157  RH  045%=      5-min Rain = 0
KBR1 142049Z 24009KT 29/16 A302 RMK A01 T02900155  RH  044%=      5-min Rain = 0
KBR1 142050Z 22011KT 29/15 A302 RMK A01 T02910152  RH  043%=      5-min Rain = 0
KBR1 142051Z 22010KT 29/15 A3019 RMK A01 T02910153  RH  043%=      5-min Rain = 0
KBR1 142052Z 24009KT 29/15 A3019 RMK A01 T02910154  RH  043%=      5-min Rain = 0
KBR1 142053Z 25009KT 29/15 A3019 RMK A01 T02930149  RH  042%=      5-min Rain = 0
KBR1 142054Z 25010KT 29/16 A3019 RMK A01 T02930156  RH  043%=      5-min Rain = 0
KBR1 142055Z 24009KT 29/14 A3019 RMK A01 T02920141  RH  040%=      5-min Rain = 0
KBR1 142056Z 25006KT 29/14 A3019 RMK A01 T02890144  RH  041%=      5-min Rain = 0
KBR1 142057Z 25005KT 29/14 A3019 RMK A01 T02880142  RH  041%=      5-min Rain = 0
KBR1 142058Z 24007KT 29/15 A3019 RMK A01 T02880147  RH  042%=      5-min Rain = 0
KBR1 142059Z 24010KT 29/15 A3019 RMK A01 T02890146  RH  042%=      5-min Rain = 0
KBR1 142100Z 23011KT 29/15 A3019 RMK A01 T02900149  RH  042%=      5-min Rain = 0
KBR1 142101Z 24009KT 29/15 A3019 RMK A01 T02910147  RH  042%=      5-min Rain = 0
KBR1 142102Z 26008KT 29/15 A3019 RMK A01 T02910148  RH  042%=      5-min Rain = 0
KBR1 142103Z 25009KT 29/15 A3019 RMK A01 T02920145  RH  041%=      5-min Rain = 0
KBR1 142104Z 24007KT 29/15 A3019 RMK A01 T02910145  RH  041%=      5-min Rain = 0
KBR1 142105Z 23008KT 29/15 A3019 RMK A01 T02920147  RH  041%=      5-min Rain = 0
KBR1 142106Z 22004KT 29/14 A3019 RMK A01 T02910137  RH  039%=      5-min Rain = 0
KBR1 142107Z 27007KT 29/14 A3019 RMK A01 T02910144  RH  041%=      5-min Rain = 0
KBR1 142108Z 30007KT 29/15 A3019 RMK A01 T02920146  RH  041%=      5-min Rain = 0
KBR1 142109Z 29006KT 29/15 A3019 RMK A01 T02920149  RH  042%=      5-min Rain = 0
KBR1 142110Z 24008KT 29/14 A3019 RMK A01 T02930144  RH  040%=      5-min Rain = 0
KBR1 142111Z 25009KT 29/15 A3019 RMK A01 T02920146  RH  041%=      5-min Rain = 0
KBR1 142112Z 25009KT 29/14 A3019 RMK A01 T02930137  RH  038%=      5-min Rain = 0
KBR1 142113Z 26007KT 29/13 A3019 RMK A01 T02930131  RH  037%=      5-min Rain = 0
KBR1 142114Z 24008KT 29/14 A3019 RMK A01 T02940141  RH  039%=      5-min Rain = 0
KBR1 142115Z 23008KT 30/14 A3019 RMK A01 T02950138  RH  038%=      5-min Rain = 0
KBR1 142116Z 23005KT 29/14 A3018 RMK A01 T02940139  RH  039%=      5-min Rain = 0
KBR1 142117Z 25006KT 29/14 A3018 RMK A01 T02940142  RH  039%=      5-min Rain = 0
KBR1 142118Z 24010KT 29/15 A3018 RMK A01 T02940145  RH  040%=      5-min Rain = 0
KBR1 142119Z 23008KT 29/15 A3018 RMK A01 T02940150  RH  042%=      5-min Rain = 0
KBR1 142120Z 22006KT 29/15 A3018 RMK A01 T02930148  RH  041%=      5-min Rain = 0
KBR1 142121Z 23007KT 29/15 A3018 RMK A01 T02940150  RH  042%=      5-min Rain = 0
KBR1 142122Z 25009KT 30/15 A3018 RMK A01 T02960151  RH  041%=      5-min Rain = 0
KBR1 142123Z 25006KT 30/14 A3018 RMK A01 T02960139  RH  038%=      5-min Rain = 0
KBR1 142124Z 26007KT 29/15 A3018 RMK A01 T02940146  RH  040%=      5-min Rain = 0
KBR1 142125Z 26007KT 30/14 A3018 RMK A01 T02950144  RH  040%=      5-min Rain = 0
KBR1 142126Z 22010KT 30/15 A3018 RMK A01 T02960150  RH  041%=      5-min Rain = 0
KBR1 142127Z 23007KT 30/15 A3018 RMK A01 T02960150  RH  041%=      5-min Rain = 0
KBR1 142128Z 23007KT 30/15 A3018 RMK A01 T02950149  RH  041%=      5-min Rain = 0
KBR1 142129Z 23010KT 30/15 A3018 RMK A01 T02950145  RH  040%=      5-min Rain = 0
KBR1 142130Z 23007KT 30/15 A3018 RMK A01 T02960149  RH  041%=      5-min Rain = 0
KBR1 142131Z 23006KT 30/16 A3018 RMK A01 T03000156  RH  042%=      5-min Rain = 0
KBR1 142132Z 22007KT 30/15 A3018 RMK A01 T03010151  RH  040%=      5-min Rain = 0
KBR1 142133Z 23006KT 30/15 A3018 RMK A01 T02970153  RH  041%=      5-min Rain = 0
KBR1 142134Z 23008KT 30/16 A3017 RMK A01 T02970155  RH  042%=      5-min Rain = 0
KBR1 142135Z 22008KT 30/15 A3017 RMK A01 T02970154  RH  042%=      5-min Rain = 0
KBR1 142136Z 21008KT 30/15 A3017 RMK A01 T02970154  RH  042%=      5-min Rain = 0
KBR1 142137Z 22006KT 30/16 A3017 RMK A01 T02960160  RH  044%=      5-min Rain = 0
KBR1 142138Z 22005KT 30/16 A3017 RMK A01 T02970159  RH  043%=      5-min Rain = 0
KBR1 142139Z 24005KT 30/16 A3017 RMK A01 T02980158  RH  043%=      5-min Rain = 0
KBR1 142140Z 24008KT 30/16 A3017 RMK A01 T02990155  RH  042%=      5-min Rain = 0
KBR1 142141Z 25008KT 30/15 A3017 RMK A01 T02990152  RH  041%=      5-min Rain = 0
KBR1 142142Z 25007KT 30/15 A3017 RMK A01 T02980153  RH  041%=      5-min Rain = 0
KBR1 142143Z 27006KT 30/15 A3017 RMK A01 T02960150  RH  041%=      5-min Rain = 0
KBR1 142144Z 28007KT 30/15 A3017 RMK A01 T02950150  RH  041%=      5-min Rain = 0
KBR1 142145Z 26006KT 30/15 A3017 RMK A01 T02950147  RH  041%=      5-min Rain = 0
KBR1 142146Z 25004KT 29/15 A3017 RMK A01 T02940154  RH  043%=      5-min Rain = 0
KBR1 142147Z 26008KT 30/16 A3017 RMK A01 T02950156  RH  043%=      5-min Rain = 0
KBR1 142148Z 25006KT 30/15 A3017 RMK A01 T02950151  RH  042%=      5-min Rain = 0
KBR1 142149Z 23009KT 30/15 A3017 RMK A01 T02950150  RH  041%=      5-min Rain = 0
KBR1 142150Z 23008KT 30/15 A3017 RMK A01 T02960150  RH  041%=      5-min Rain = 0
KBR1 142151Z 24008KT 30/15 A3017 RMK A01 T02970148  RH  040%=      5-min Rain = 0
KBR1 142152Z 24007KT 30/15 A3017 RMK A01 T02970146  RH  040%=      5-min Rain = 0
KBR1 142153Z 23006KT 30/15 A3017 RMK A01 T02950149  RH  041%=      5-min Rain = 0
KBR1 142154Z 23003KT 30/15 A3017 RMK A01 T02950149  RH  041%=      5-min Rain = 0
KBR1 142155Z 23006KT 30/16 A3016 RMK A01 T02950155  RH  043%=      5-min Rain = 0
KBR1 142156Z 23008KT 30/15 A3016 RMK A01 T02970152  RH  041%=      5-min Rain = 0
KBR1 142157Z 24006KT 30/16 A3017 RMK A01 T02960155  RH  042%=      5-min Rain = 0
KBR1 142158Z 22006KT 30/16 A3016 RMK A01 T02970159  RH  043%=      5-min Rain = 0
KBR1 142159Z 22003KT 30/15 A3016 RMK A01 T02970153  RH  042%=      5-min Rain = 0
KBR1 142200Z 22003KT 30/16 A3016 RMK A01 T02960155  RH  042%=      5-min Rain = 0
KBR1 142201Z 23004KT 30/15 A3016 RMK A01 T02960152  RH  042%=      5-min Rain = 0
KBR1 142202Z 22003KT 30/16 A3016 RMK A01 T02960157  RH  043%=      5-min Rain = 0
KBR1 142203Z 23007KT 30/16 A3016 RMK A01 T02980156  RH  042%=      5-min Rain = 0
KBR1 142204Z 21007KT 30/15 A3016 RMK A01 T02990153  RH  041%=      5-min Rain = 0
KBR1 142205Z 20006KT 30/15 A3016 RMK A01 T02990149  RH  040%=      5-min Rain = 0
KBR1 142206Z 19005KT 30/15 A3016 RMK A01 T02980153  RH  042%=      5-min Rain = 0
KBR1 142207Z 21006KT 30/15 A3016 RMK A01 T02980153  RH  041%=      5-min Rain = 0
KBR1 142208Z 22004KT 30/15 A3016 RMK A01 T02980152  RH  041%=      5-min Rain = 0
KBR1 142209Z 21006KT 30/16 A3016 RMK A01 T02980158  RH  043%=      5-min Rain = 0
KBR1 142210Z 21010KT 30/16 A3016 RMK A01 T02990159  RH  043%=      5-min Rain = 0
KBR1 142211Z 22007KT 30/15 A3016 RMK A01 T03000149  RH  040%=      5-min Rain = 0
KBR1 142212Z 22008KT 30/15 A3015 RMK A01 T02990153  RH  041%=      5-min Rain = 0
KBR1 142213Z 20008KT 30/15 A3015 RMK A01 T02990152  RH  041%=      5-min Rain = 0
KBR1 142214Z 20008KT 30/16 A3015 RMK A01 T02980158  RH  043%=      5-min Rain = 0
KBR1 142215Z 19009KT 30/16 A3015 RMK A01 T02990161  RH  043%=      5-min Rain = 0
KBR1 142216Z 19006KT 30/16 A3015 RMK A01 T03000155  RH  041%=      5-min Rain = 0
KBR1 142217Z 19007KT 30/16 A3015 RMK A01 T02980155  RH  042%=      5-min Rain = 0
KBR1 142218Z 18008KT 30/15 A3015 RMK A01 T02970154  RH  042%=      5-min Rain = 0
KBR1 142219Z 20008KT 30/16 A3015 RMK A01 T02970157  RH  043%=      5-min Rain = 0
KBR1 142220Z 20007KT 30/16 A3015 RMK A01 T02980156  RH  042%=      5-min Rain = 0
KBR1 142221Z 20009KT 30/16 A3015 RMK A01 T02980158  RH  043%=      5-min Rain = 0
KBR1 142222Z 21008KT 30/16 A3015 RMK A01 T02990155  RH  042%=      5-min Rain = 0
KBR1 142223Z 21006KT 30/16 A3015 RMK A01 T02990161  RH  043%=      5-min Rain = 0
KBR1 142224Z 21006KT 30/16 A3015 RMK A01 T03020159  RH  042%=      5-min Rain = 0
KBR1 142225Z 21006KT 30/16 A3015 RMK A01 T03020159  RH  042%=      5-min Rain = 0
KBR1 142226Z 22006KT 30/16 A3015 RMK A01 T03020157  RH  041%=      5-min Rain = 0
KBR1 142227Z 23007KT 30/16 A3015 RMK A01 T03030158  RH  042%=      5-min Rain = 0
KBR1 142228Z 22007KT 30/16 A3015 RMK A01 T03030156  RH  041%=      5-min Rain = 0
KBR1 142229Z 24008KT 30/16 A3015 RMK A01 T03040161  RH  042%=      5-min Rain = 0
KBR1 142230Z 24008KT 30/16 A3015 RMK A01 T03040155  RH  040%=      5-min Rain = 0
KBR1 142231Z 23007KT 30/15 A3015 RMK A01 T03010154  RH  041%=      5-min Rain = 0
KBR1 142232Z 23007KT 30/16 A3015 RMK A01 T02990155  RH  042%=      5-min Rain = 0
KBR1 142233Z 23008KT 30/16 A3015 RMK A01 T02990157  RH  042%=      5-min Rain = 0
KBR1 142234Z 23007KT 30/16 A3015 RMK A01 T02990156  RH  042%=      5-min Rain = 0
KBR1 142235Z 22006KT 30/16 A3015 RMK A01 T02990156  RH  042%=      5-min Rain = 0
KBR1 142236Z 24007KT 30/16 A3015 RMK A01 T02980161  RH  043%=      5-min Rain = 0
KBR1 142237Z 26009KT 30/16 A3015 RMK A01 T02990161  RH  043%=      5-min Rain = 0
KBR1 142238Z 27006KT 30/15 A3015 RMK A01 T02980154  RH  042%=      5-min Rain = 0
KBR1 142239Z 26006KT 30/16 A3015 RMK A01 T02950156  RH  043%=      5-min Rain = 0
KBR1 142240Z 26003KT 29/15 A3015 RMK A01 T02940153  RH  042%=      5-min Rain = 0
KBR1 142241Z 23003KT 29/16 A3015 RMK A01 T02940155  RH  043%=      5-min Rain = 0
KBR1 142242Z 25005KT 29/16 A3015 RMK A01 T02940156  RH  043%=      5-min Rain = 0
KBR1 142243Z 22007KT 30/16 A3015 RMK A01 T02950161  RH  044%=      5-min Rain = 0
KBR1 142244Z 21008KT 30/16 A3015 RMK A01 T02980164  RH  045%=      5-min Rain = 0
KBR1 142245Z 21006KT 30/16 A3015 RMK A01 T02990157  RH  042%=      5-min Rain = 0
KBR1 142246Z 20008KT 30/16 A3015 RMK A01 T02980162  RH  044%=      5-min Rain = 0
KBR1 142247Z 20006KT 30/16 A3015 RMK A01 T02980159  RH  043%=      5-min Rain = 0
KBR1 142248Z 22003KT 30/17 A3015 RMK A01 T02970166  RH  045%=      5-min Rain = 0
KBR1 142249Z 20004KT 30/16 A3015 RMK A01 T02990164  RH  044%=      5-min Rain = 0
KBR1 142250Z 20005KT 30/16 A3015 RMK A01 T02990161  RH  043%=      5-min Rain = 0
KBR1 142251Z 21004KT 30/16 A3015 RMK A01 T02990160  RH  043%=      5-min Rain = 0
KBR1 142252Z 21007KT 30/16 A3015 RMK A01 T02990164  RH  044%=      5-min Rain = 0
KBR1 142253Z 24005KT 30/16 A3015 RMK A01 T02990157  RH  042%=      5-min Rain = 0
KBR1 142254Z 23005KT 30/16 A3015 RMK A01 T02980158  RH  043%=      5-min Rain = 0
KBR1 142255Z 22002KT 30/16 A3015 RMK A01 T02970158  RH  043%=      5-min Rain = 0
KBR1 142256Z 22003G8KT 30/16 A3015 RMK A01 T02960160  RH  044%=      5-min Rain = 0
KBR1 142257Z 20006KT 30/16 A3015 RMK A01 T02970162  RH  044%=      5-min Rain = 0
KBR1 142258Z 21005KT 30/16 A3015 RMK A01 T02970160  RH  044%=      5-min Rain = 0
KBR1 142259Z 20006KT 30/16 A3015 RMK A01 T02960158  RH  043%=      5-min Rain = 0
KBR1 142300Z 20007KT 30/16 A3015 RMK A01 T02960163  RH  045%=      5-min Rain = 0
KBR1 142301Z 21009KT 30/16 A3014 RMK A01 T02960162  RH  045%=      5-min Rain = 0
KBR1 142302Z 20009KT 30/16 A3014 RMK A01 T02960161  RH  044%=      5-min Rain = 0
KBR1 142303Z 20007KT 30/16 A3014 RMK A01 T02950157  RH  043%=      5-min Rain = 0
KBR1 142304Z 21007KT 29/16 A3014 RMK A01 T02940163  RH  045%=      5-min Rain = 0
KBR1 142305Z 21006KT 29/16 A3015 RMK A01 T02940160  RH  044%=      5-min Rain = 0
KBR1 142306Z 19004KT 29/16 A3015 RMK A01 T02940160  RH  044%=      5-min Rain = 0
KBR1 142307Z 21004KT 29/16 A3014 RMK A01 T02940161  RH  045%=      5-min Rain = 0
KBR1 142308Z 23004KT 30/16 A3014 RMK A01 T02950161  RH  044%=      5-min Rain = 0
KBR1 142309Z 23004KT 30/16 A3014 RMK A01 T02950164  RH  045%=      5-min Rain = 0
KBR1 142310Z 20005KT 30/16 A3014 RMK A01 T02960162  RH  045%=      5-min Rain = 0
KBR1 142311Z 22006KT 30/17 A3014 RMK A01 T02960166  RH  046%=      5-min Rain = 0
KBR1 142312Z 19004KT 30/17 A3014 RMK A01 T02970166  RH  045%=      5-min Rain = 0
KBR1 142313Z 19004KT 30/17 A3014 RMK A01 T02980166  RH  045%=      5-min Rain = 0
KBR1 142314Z 20004KT 30/16 A3014 RMK A01 T02980163  RH  044%=      5-min Rain = 0
KBR1 142315Z 22005KT 30/17 A3014 RMK A01 T02970165  RH  045%=      5-min Rain = 0
KBR1 142316Z 20004KT 30/17 A3015 RMK A01 T02980165  RH  045%=      5-min Rain = 0
KBR1 142317Z 19004KT 30/16 A3015 RMK A01 T02980162  RH  044%=      5-min Rain = 0
KBR1 142318Z 18003KT 30/16 A3015 RMK A01 T02970160  RH  044%=      5-min Rain = 0
KBR1 142319Z 23003KT 30/16 A3015 RMK A01 T02960163  RH  045%=      5-min Rain = 0
KBR1 142320Z 25003KT 30/16 A3015 RMK A01 T02950161  RH  044%=      5-min Rain = 0
KBR1 142321Z 23004KT 30/17 A3015 RMK A01 T02950165  RH  045%=      5-min Rain = 0
KBR1 142322Z 24007KT 30/17 A3015 RMK A01 T02960167  RH  046%=      5-min Rain = 0
KBR1 142323Z 25007KT 30/17 A3015 RMK A01 T02960165  RH  045%=      5-min Rain = 0
KBR1 142324Z 25007KT 30/17 A3015 RMK A01 T02960165  RH  045%=      5-min Rain = 0
KBR1 142325Z 25006KT 30/17 A3015 RMK A01 T02960168  RH  046%=      5-min Rain = 0
KBR1 142326Z 22006KT 30/17 A3015 RMK A01 T02950167  RH  046%=      5-min Rain = 0
KBR1 142327Z 22004KT 30/17 A3015 RMK A01 T02950169  RH  046%=      5-min Rain = 0
KBR1 142328Z 23004KT 30/17 A3015 RMK A01 T02950169  RH  047%=      5-min Rain = 0
KBR1 142329Z 25007KT 30/17 A3015 RMK A01 T02950165  RH  046%=      5-min Rain = 0
KBR1 142330Z 23007KT 29/17 A3015 RMK A01 T02940167  RH  046%=      5-min Rain = 0
KBR1 142331Z 23005KT 29/16 A3015 RMK A01 T02930162  RH  045%=      5-min Rain = 0
KBR1 142332Z 21004KT 29/16 A3015 RMK A01 T02920162  RH  046%=      5-min Rain = 0
KBR1 142333Z 21003KT 29/17 A3015 RMK A01 T02920170  RH  048%=      5-min Rain = 0
KBR1 142334Z 20004KT 29/17 A3015 RMK A01 T02920166  RH  047%=      5-min Rain = 0
KBR1 142335Z 21003KT 29/17 A3015 RMK A01 T02920166  RH  047%=      5-min Rain = 0
KBR1 142336Z 22003KT 29/16 A3015 RMK A01 T02920163  RH  046%=      5-min Rain = 0
KBR1 142337Z 25003KT 29/17 A3015 RMK A01 T02910165  RH  047%=      5-min Rain = 0
KBR1 142338Z 24006KT 29/17 A3015 RMK A01 T02910168  RH  047%=      5-min Rain = 0
KBR1 142339Z 25007KT 29/16 A3015 RMK A01 T02910163  RH  046%=      5-min Rain = 0
KBR1 142340Z 26007KT 29/16 A3015 RMK A01 T02910163  RH  046%=      5-min Rain = 0
KBR1 142341Z 25005KT 29/16 A3015 RMK A01 T02900164  RH  046%=      5-min Rain = 0
KBR1 142342Z 24005KT 29/16 A3015 RMK A01 T02900164  RH  047%=      5-min Rain = 0
KBR1 142343Z 25006KT 29/17 A3015 RMK A01 T02900165  RH  047%=      5-min Rain = 0
KBR1 142344Z 24005KT 29/17 A3015 RMK A01 T02900166  RH  047%=      5-min Rain = 0
KBR1 142345Z 24005KT 29/16 A3015 RMK A01 T02900163  RH  046%=      5-min Rain = 0
KBR1 142346Z 24005KT 29/17 A3015 RMK A01 T02900165  RH  047%=      5-min Rain = 0
KBR1 142347Z 24005KT 29/17 A3015 RMK A01 T02890165  RH  047%=      5-min Rain = 0
KBR1 142348Z 26005KT 29/17 A3015 RMK A01 T02900168  RH  048%=      5-min Rain = 0
KBR1 142349Z 24004KT 29/17 A3015 RMK A01 T02890167  RH  047%=      5-min Rain = 0
KBR1 142350Z 24003KT 29/17 A3015 RMK A01 T02900174  RH  050%=      5-min Rain = 0
KBR1 142351Z 24004KT 29/17 A3015 RMK A01 T02900168  RH  048%=      5-min Rain = 0
KBR1 142352Z 24004KT 29/17 A3015 RMK A01 T02900168  RH  048%=      5-min Rain = 0
KBR1 142353Z 25004KT 29/16 A3014 RMK A01 T02900163  RH  046%=      5-min Rain = 0
KBR1 142354Z 24004KT 29/17 A3014 RMK A01 T02900165  RH  047%=      5-min Rain = 0
KBR1 142355Z 24004KT 29/16 A3014 RMK A01 T02900164  RH  047%=      5-min Rain = 0
KBR1 142356Z 23003KT 29/17 A3014 RMK A01 T02900166  RH  047%=      5-min Rain = 0
KBR1 142357Z 23004KT 29/17 A3014 RMK A01 T02910172  RH  049%=      5-min Rain = 0
KBR1 142358Z 21005KT 29/17 A3014 RMK A01 T02920165  RH  046%=      5-min Rain = 0
KBR1 142359Z 19003KT 29/17 A3014 RMK A01 T02920168  RH  047%=      5-min Rain = 0
KBR1 150000Z 19003KT 29/17 A3014 RMK A01 T02920165  RH  047%=      5-min Rain = 0
KBR1 150001Z 21003KT 29/17 A3014 RMK A01 T02910168  RH  047%=      5-min Rain = 0
KBR1 150002Z 22003KT 29/17 A3014 RMK A01 T02910169  RH  048%=      5-min Rain = 0
KBR1 150003Z 25004KT 29/17 A3014 RMK A01 T02910168  RH  047%=      5-min Rain = 0
KBR1 150004Z 25004KT 29/17 A3014 RMK A01 T02910165  RH  046%=      5-min Rain = 0
KBR1 150005Z 26004KT 29/16 A3014 RMK A01 T02900163  RH  046%=      5-min Rain = 0
KBR1 150006Z 25003KT 29/17 A3014 RMK A01 T02900167  RH  047%=      5-min Rain = 0
KBR1 150007Z 24003KT 29/17 A3014 RMK A01 T02900167  RH  047%=      5-min Rain = 0
KBR1 150008Z 24002KT 29/16 A3014 RMK A01 T02900163  RH  046%=      5-min Rain = 0
KBR1 150009Z 24002KT 29/17 A3014 RMK A01 T02900168  RH  048%=      5-min Rain = 0
KBR1 150010Z 24002KT 29/17 A3014 RMK A01 T02900165  RH  047%=      5-min Rain = 0
KBR1 150011Z 23002KT 29/16 A3014 RMK A01 T02900162  RH  046%=      5-min Rain = 0
KBR1 150012Z 23002KT 29/16 A3014 RMK A01 T02890164  RH  047%=      5-min Rain = 0
KBR1 150013Z 23001KT 29/17 A3014 RMK A01 T02890166  RH  047%=      5-min Rain = 0
KBR1 150014Z 21001KT 29/16 A3015 RMK A01 T02890163  RH  046%=      5-min Rain = 0
KBR1 150015Z 22002KT 29/17 A3015 RMK A01 T02890167  RH  048%=      5-min Rain = 0
KBR1 150016Z 22002KT 29/17 A3015 RMK A01 T02890166  RH  047%=      5-min Rain = 0
KBR1 150017Z 21001KT 29/17 A3015 RMK A01 T02890170  RH  049%=      5-min Rain = 0
KBR1 150018Z 20001KT 29/17 A3015 RMK A01 T02890167  RH  048%=      5-min Rain = 0
KBR1 150019Z 20001KT 29/16 A3015 RMK A01 T02880164  RH  047%=      5-min Rain = 0
KBR1 150020Z 20001KT 29/17 A3015 RMK A01 T02880169  RH  049%=      5-min Rain = 0
KBR1 150021Z 21001KT 29/16 A3015 RMK A01 T02880163  RH  047%=      5-min Rain = 0
KBR1 150022Z 22001KT 29/17 A3014 RMK A01 T02880169  RH  049%=      5-min Rain = 0
KBR1 150023Z 22002KT 29/17 A3014 RMK A01 T02880172  RH  050%=      5-min Rain = 0
KBR1 150024Z 22002KT 29/17 A3014 RMK A01 T02880167  RH  048%=      5-min Rain = 0
KBR1 150025Z 22002KT 29/17 A3014 RMK A01 T02870167  RH  048%=      5-min Rain = 0
KBR1 150026Z 22002KT 29/17 A3014 RMK A01 T02870165  RH  048%=      5-min Rain = 0
KBR1 150027Z 22002KT 29/17 A3014 RMK A01 T02870167  RH  048%=      5-min Rain = 0
KBR1 150028Z 22001KT 29/17 A3014 RMK A01 T02870171  RH  050%=      5-min Rain = 0
KBR1 150029Z 22001KT 29/17 A3014 RMK A01 T02870166  RH  048%=      5-min Rain = 0
KBR1 150030Z 23001KT 29/16 A3014 RMK A01 T02870163  RH  047%=      5-min Rain = 0
KBR1 150031Z 23001KT 29/17 A3014 RMK A01 T02870165  RH  048%=      5-min Rain = 0
KBR1 150032Z 22001KT 29/17 A3014 RMK A01 T02870167  RH  048%=      5-min Rain = 0
KBR1 150033Z 22001KT 29/17 A3014 RMK A01 T02870169  RH  049%=      5-min Rain = 0
KBR1 150034Z 20001KT 29/18 A3014 RMK A01 T02860176  RH  051%=      5-min Rain = 0
KBR1 150035Z 20001KT 29/18 A3014 RMK A01 T02860175  RH  051%=      5-min Rain = 0
KBR1 150036Z 20002KT 29/17 A3014 RMK A01 T02860172  RH  050%=      5-min Rain = 0
KBR1 150037Z 20002KT 29/17 A3014 RMK A01 T02860168  RH  049%=      5-min Rain = 0
KBR1 150038Z 20002KT 29/18 A3014 RMK A01 T02860176  RH  052%=      5-min Rain = 0
KBR1 150039Z 20002KT 29/18 A3014 RMK A01 T02850178  RH  052%=      5-min Rain = 0
KBR1 150040Z 20002KT 28/18 A3014 RMK A01 T02840179  RH  053%=      5-min Rain = 0
KBR1 150041Z 20002KT 28/18 A3014 RMK A01 T02840181  RH  054%=      5-min Rain = 0
KBR1 150042Z 19002KT 28/18 A3014 RMK A01 T02840181  RH  054%=      5-min Rain = 0
KBR1 150043Z 19002KT 28/18 A3014 RMK A01 T02830180  RH  054%=      5-min Rain = 0
KBR1 150044Z 18002KT 28/18 A3015 RMK A01 T02830184  RH  055%=      5-min Rain = 0
KBR1 150045Z 18002KT 28/19 A3015 RMK A01 T02820186  RH  056%=      5-min Rain = 0
KBR1 150046Z 19002KT 28/19 A3015 RMK A01 T02820187  RH  056%=      5-min Rain = 0
KBR1 150047Z 19002KT 28/19 A3015 RMK A01 T02820188  RH  057%=      5-min Rain = 0
KBR1 150048Z 20002KT 28/19 A3015 RMK A01 T02810186  RH  056%=      5-min Rain = 0
KBR1 150049Z 20002KT 28/19 A3015 RMK A01 T02810186  RH  056%=      5-min Rain = 0
KBR1 150050Z 20001KT 28/19 A3015 RMK A01 T02810185  RH  056%=      5-min Rain = 0
KBR1 150051Z 20001KT 28/19 A3015 RMK A01 T02810187  RH  057%=      5-min Rain = 0
KBR1 150052Z 20001KT 28/19 A3015 RMK A01 T02810190  RH  058%=      5-min Rain = 0
KBR1 150053Z 20001KT 28/19 A3015 RMK A01 T02800186  RH  057%=      5-min Rain = 0
KBR1 150054Z 20000KT 28/19 A3015 RMK A01 T02800187  RH  057%=      5-min Rain = 0
KBR1 150055Z 20000KT 28/19 A3015 RMK A01 T02800188  RH  057%=      5-min Rain = 0
KBR1 150056Z 20001KT 28/19 A3015 RMK A01 T02790188  RH  058%=      5-min Rain = 0
KBR1 150057Z 20001KT 28/19 A3015 RMK A01 T02790189  RH  058%=      5-min Rain = 0
KBR1 150058Z 20001KT 28/19 A3015 RMK A01 T02790191  RH  059%=      5-min Rain = 0
KBR1 150059Z 20001KT 28/19 A3015 RMK A01 T02790191  RH  059%=      5-min Rain = 0
KBR1 150100Z 20001KT 28/19 A3015 RMK A01 T02780192  RH  059%=      5-min Rain = 0
KBR1 150101Z 20001KT 28/19 A3015 RMK A01 T02780192  RH  059%=      5-min Rain = 0
KBR1 150102Z 19001KT 28/19 A3015 RMK A01 T02780193  RH  060%=      5-min Rain = 0
KBR1 150103Z 19002KT 28/19 A3015 RMK A01 T02780194  RH  060%=      5-min Rain = 0
KBR1 150104Z 18002KT 28/19 A3015 RMK A01 T02770194  RH  060%=      5-min Rain = 0
KBR1 150105Z 18002KT 28/20 A3015 RMK A01 T02770195  RH  061%=      5-min Rain = 0
KBR1 150106Z 18002KT 28/20 A3015 RMK A01 T02770196  RH  062%=      5-min Rain = 0
KBR1 150107Z 17002KT 28/20 A3015 RMK A01 T02760200  RH  063%=      5-min Rain = 0
KBR1 150108Z 17002KT 28/20 A3015 RMK A01 T02750197  RH  062%=      5-min Rain = 0
KBR1 150109Z 17002KT 28/20 A3015 RMK A01 T02750196  RH  062%=      5-min Rain = 0
KBR1 150110Z 16003KT 27/20 A3015 RMK A01 T02740197  RH  062%=      5-min Rain = 0
KBR1 150111Z 16003KT 27/20 A3015 RMK A01 T02740196  RH  063%=      5-min Rain = 0
KBR1 150112Z 16002KT 27/20 A3015 RMK A01 T02730197  RH  063%=      5-min Rain = 0
KBR1 150113Z 16002KT 27/20 A3015 RMK A01 T02730197  RH  063%=      5-min Rain = 0
KBR1 150114Z 16002KT 27/20 A3015 RMK A01 T02720196  RH  063%=      5-min Rain = 0
KBR1 150115Z 16002KT 27/20 A3015 RMK A01 T02720198  RH  064%=      5-min Rain = 0
KBR1 150116Z 16002KT 27/20 A3015 RMK A01 T02710199  RH  065%=      5-min Rain = 0
KBR1 150117Z 16002KT 27/20 A3015 RMK A01 T02710197  RH  064%=      5-min Rain = 0
KBR1 150118Z 15002KT 27/19 A3015 RMK A01 T02710193  RH  063%=      5-min Rain = 0
KBR1 150119Z 15002KT 27/20 A3015 RMK A01 T02710196  RH  064%=      5-min Rain = 0
KBR1 150120Z 14002KT 27/20 A3015 RMK A01 T02710195  RH  063%=      5-min Rain = 0
KBR1 150121Z 14002KT 27/19 A3015 RMK A01 T02710191  RH  062%=      5-min Rain = 0
KBR1 150122Z 14002KT 27/19 A3015 RMK A01 T02710191  RH  061%=      5-min Rain = 0
KBR1 150123Z 14002KT 27/19 A3015 RMK A01 T02710186  RH  060%=      5-min Rain = 0
KBR1 150124Z 14002KT 27/19 A3015 RMK A01 T02720186  RH  059%=      5-min Rain = 0
KBR1 150125Z 15002KT 27/19 A3015 RMK A01 T02720187  RH  060%=      5-min Rain = 0
KBR1 150126Z 15002KT 27/19 A3015 RMK A01 T02720185  RH  059%=      5-min Rain = 0
KBR1 150127Z 15002KT 27/19 A3015 RMK A01 T02720186  RH  059%=      5-min Rain = 0
KBR1 150128Z 15002KT 27/18 A3015 RMK A01 T02720184  RH  059%=      5-min Rain = 0
KBR1 150129Z 15003KT 27/18 A3015 RMK A01 T02720184  RH  059%=      5-min Rain = 0
KBR1 150130Z 14003KT 27/19 A3015 RMK A01 T02720186  RH  059%=      5-min Rain = 0
KBR1 150131Z 14003KT 27/19 A3015 RMK A01 T02710187  RH  060%=      5-min Rain = 0
KBR1 150132Z 14003KT 27/18 A3015 RMK A01 T02700184  RH  059%=      5-min Rain = 0
KBR1 150133Z 14003KT 27/19 A3015 RMK A01 T02710186  RH  060%=      5-min Rain = 0
KBR1 150134Z 13003KT 27/19 A3015 RMK A01 T02700186  RH  060%=      5-min Rain = 0
KBR1 150135Z 13003KT 27/19 A3015 RMK A01 T02700185  RH  060%=      5-min Rain = 0
KBR1 150136Z 12003KT 27/19 A3015 RMK A01 T02690187  RH  061%=      5-min Rain = 0
KBR1 150137Z 12003KT 27/19 A3015 RMK A01 T02690188  RH  061%=      5-min Rain = 0
KBR1 150138Z 12003KT 27/19 A3015 RMK A01 T02680190  RH  062%=      5-min Rain = 0
KBR1 150139Z 11003KT 27/19 A3015 RMK A01 T02680192  RH  063%=      5-min Rain = 0
KBR1 150140Z 11003KT 27/19 A3015 RMK A01 T02670193  RH  064%=      5-min Rain = 0
KBR1 150141Z 11003KT 27/19 A3015 RMK A01 T02670193  RH  064%=      5-min Rain = 0
KBR1 150142Z 11003KT 27/19 A3015 RMK A01 T02660192  RH  064%=      5-min Rain = 0
KBR1 150143Z 12004KT 27/19 A3015 RMK A01 T02660192  RH  064%=      5-min Rain = 0
KBR1 150144Z 12004KT 27/19 A3015 RMK A01 T02660193  RH  064%=      5-min Rain = 0
KBR1 150145Z 12004KT 27/19 A3015 RMK A01 T02660194  RH  065%=      5-min Rain = 0
KBR1 150146Z 12004KT 27/19 A3015 RMK A01 T02650194  RH  065%=      5-min Rain = 0
KBR1 150147Z 13004KT 26/20 A3015 RMK A01 T02640195  RH  066%=      5-min Rain = 0
KBR1 150148Z 13004KT 26/20 A3015 RMK A01 T02640196  RH  066%=      5-min Rain = 0
KBR1 150149Z 13004KT 26/20 A3015 RMK A01 T02630196  RH  067%=      5-min Rain = 0
KBR1 150150Z 13004KT 26/20 A3015 RMK A01 T02620197  RH  067%=      5-min Rain = 0
KBR1 150151Z 13004KT 26/20 A3015 RMK A01 T02620196  RH  067%=      5-min Rain = 0
KBR1 150152Z 13004KT 26/20 A3015 RMK A01 T02610196  RH  067%=      5-min Rain = 0
KBR1 150153Z 13004KT 26/20 A3015 RMK A01 T02610198  RH  068%=      5-min Rain = 0
KBR1 150154Z 13004KT 26/20 A3015 RMK A01 T02600198  RH  069%=      5-min Rain = 0
KBR1 150155Z 13004KT 26/20 A3015 RMK A01 T02590198  RH  069%=      5-min Rain = 0
KBR1 150156Z 13005KT 26/20 A3015 RMK A01 T02590198  RH  069%=      5-min Rain = 0
KBR1 150157Z 13005KT 26/20 A3015 RMK A01 T02590198  RH  069%=      5-min Rain = 0
KBR1 150158Z 13005KT 26/20 A3015 RMK A01 T02590197  RH  069%=      5-min Rain = 0
KBR1 150159Z 13005KT 26/20 A3014 RMK A01 T02590197  RH  068%=      5-min Rain = 0
KBR1 150200Z 12005KT 26/20 A3014 RMK A01 T02590196  RH  068%=      5-min Rain = 0
KBR1 150201Z 12005KT 26/20 A3014 RMK A01 T02590195  RH  068%=      5-min Rain = 0
KBR1 150202Z 11005KT 26/20 A3014 RMK A01 T02590195  RH  068%=      5-min Rain = 0
KBR1 150203Z 11005KT 26/20 A3014 RMK A01 T02590196  RH  068%=      5-min Rain = 0
KBR1 150204Z 11005KT 26/20 A3014 RMK A01 T02590195  RH  068%=      5-min Rain = 0
KBR1 150205Z 11006KT 26/20 A3014 RMK A01 T02590195  RH  068%=      5-min Rain = 0
KBR1 150206Z 11006KT 26/19 A3014 RMK A01 T02580194  RH  068%=      5-min Rain = 0
KBR1 150207Z 11006KT 26/19 A3014 RMK A01 T02580194  RH  067%=      5-min Rain = 0
KBR1 150208Z 11006KT 26/19 A3015 RMK A01 T02580193  RH  067%=      5-min Rain = 0
KBR1 150209Z 11006KT 26/19 A3015 RMK A01 T02570192  RH  067%=      5-min Rain = 0
KBR1 150210Z 11006KT 26/19 A3015 RMK A01 T02570191  RH  067%=      5-min Rain = 0
KBR1 150211Z 11006KT 26/19 A3014 RMK A01 T02570191  RH  067%=      5-min Rain = 0
KBR1 150212Z 11007KT 26/19 A3014 RMK A01 T02570190  RH  066%=      5-min Rain = 0
KBR1 150213Z 11007KT 26/19 A3014 RMK A01 T02560189  RH  066%=      5-min Rain = 0
KBR1 150214Z 11007KT 26/19 A3014 RMK A01 T02570188  RH  066%=      5-min Rain = 0
KBR1 150215Z 11007KT 26/19 A3014 RMK A01 T02570188  RH  066%=      5-min Rain = 0
KBR1 150216Z 12007KT 26/19 A3014 RMK A01 T02570186  RH  065%=      5-min Rain = 0
KBR1 150217Z 12007KT 26/19 A3014 RMK A01 T02570186  RH  065%=      5-min Rain = 0
KBR1 150218Z 12006KT 26/19 A3014 RMK A01 T02560185  RH  065%=      5-min Rain = 0
KBR1 150219Z 12006KT 26/18 A3014 RMK A01 T02560184  RH  064%=      5-min Rain = 0
KBR1 150220Z 12006KT 26/19 A3015 RMK A01 T02570185  RH  064%=      5-min Rain = 0
KBR1 150221Z 12006KT 26/19 A3015 RMK A01 T02560185  RH  065%=      5-min Rain = 0
KBR1 150222Z 11006KT 26/19 A3015 RMK A01 T02570185  RH  065%=      5-min Rain = 0
KBR1 150223Z 12006KT 26/19 A3015 RMK A01 T02560185  RH  065%=      5-min Rain = 0
KBR1 150224Z 11006KT 26/19 A3015 RMK A01 T02560186  RH  065%=      5-min Rain = 0
KBR1 150225Z 12006KT 26/19 A3015 RMK A01 T02560185  RH  065%=      5-min Rain = 0
KBR1 150226Z 12006KT 26/19 A3015 RMK A01 T02560186  RH  065%=      5-min Rain = 0
KBR1 150227Z 12007KT 26/19 A3015 RMK A01 T02550185  RH  065%=      5-min Rain = 0
KBR1 150228Z 11007KT 26/19 A3015 RMK A01 T02550186  RH  066%=      5-min Rain = 0
KBR1 150229Z 11007KT 25/19 A3015 RMK A01 T02540186  RH  066%=      5-min Rain = 0
KBR1 150230Z 11007KT 25/19 A3015 RMK A01 T02530186  RH  066%=      5-min Rain = 0
KBR1 150231Z 11007KT 25/19 A3015 RMK A01 T02530186  RH  066%=      5-min Rain = 0
KBR1 150232Z 11007KT 25/19 A3015 RMK A01 T02530186  RH  066%=      5-min Rain = 0
KBR1 150233Z 11007KT 25/19 A3015 RMK A01 T02520185  RH  066%=      5-min Rain = 0
KBR1 150234Z 11007KT 25/19 A3015 RMK A01 T02520185  RH  067%=      5-min Rain = 0
KBR1 150235Z 11007KT 25/19 A3015 RMK A01 T02520186  RH  067%=      5-min Rain = 0
KBR1 150236Z 11007KT 25/19 A3015 RMK A01 T02520186  RH  067%=      5-min Rain = 0
KBR1 150237Z 11008KT 25/19 A3015 RMK A01 T02520185  RH  066%=      5-min Rain = 0
KBR1 150238Z 11008KT 25/18 A3015 RMK A01 T02520184  RH  066%=      5-min Rain = 0
KBR1 150239Z 11008KT 25/18 A3015 RMK A01 T02530184  RH  066%=      5-min Rain = 0
KBR1 150240Z 11008KT 25/18 A3015 RMK A01 T02520183  RH  065%=      5-min Rain = 0
KBR1 150241Z 11008KT 25/18 A3015 RMK A01 T02530182  RH  065%=      5-min Rain = 0
KBR1 150242Z 11008KT 25/18 A3015 RMK A01 T02530182  RH  065%=      5-min Rain = 0
KBR1 150243Z 11008KT 25/18 A3015 RMK A01 T02540182  RH  064%=      5-min Rain = 0
KBR1 150244Z 11008KT 25/18 A3015 RMK A01 T02540181  RH  064%=      5-min Rain = 0
KBR1 150245Z 11008KT 25/18 A3015 RMK A01 T02540181  RH  064%=      5-min Rain = 0
KBR1 150246Z 11008KT 25/18 A3015 RMK A01 T02540179  RH  063%=      5-min Rain = 0
KBR1 150247Z 11008KT 26/18 A3015 RMK A01 T02550180  RH  063%=      5-min Rain = 0
KBR1 150248Z 11008KT 26/18 A3015 RMK A01 T02550179  RH  063%=      5-min Rain = 0
KBR1 150249Z 11008KT 26/18 A3015 RMK A01 T02550179  RH  063%=      5-min Rain = 0
KBR1 150250Z 11008KT 26/18 A3015 RMK A01 T02550179  RH  063%=      5-min Rain = 0
KBR1 150251Z 11008KT 26/18 A3015 RMK A01 T02550179  RH  063%=      5-min Rain = 0
KBR1 150252Z 11008KT 26/18 A3015 RMK A01 T02550179  RH  063%=      5-min Rain = 0
KBR1 150253Z 11008KT 26/18 A3015 RMK A01 T02550179  RH  062%=      5-min Rain = 0
KBR1 150254Z 11007KT 26/18 A3016 RMK A01 T02550178  RH  063%=      5-min Rain = 0
KBR1 150255Z 11007KT 26/18 A3016 RMK A01 T02550179  RH  063%=      5-min Rain = 0
KBR1 150256Z 11007KT 26/18 A3016 RMK A01 T02550179  RH  063%=      5-min Rain = 0
KBR1 150257Z 11007KT 25/18 A3016 RMK A01 T02540179  RH  063%=      5-min Rain = 0
KBR1 150258Z 11007KT 25/18 A3016 RMK A01 T02540178  RH  062%=      5-min Rain = 0
KBR1 150259Z 11007KT 25/18 A3016 RMK A01 T02540178  RH  063%=      5-min Rain = 0
KBR1 150300Z 11007KT 25/18 A3016 RMK A01 T02540179  RH  063%=      5-min Rain = 0
KBR1 150301Z 11007KT 25/18 A3016 RMK A01 T02540178  RH  063%=      5-min Rain = 0
KBR1 150302Z 11007KT 25/18 A3016 RMK A01 T02540178  RH  063%=      5-min Rain = 0
KBR1 150303Z 11007KT 25/18 A3017 RMK A01 T02540178  RH  063%=      5-min Rain = 0
KBR1 150304Z 11007KT 25/18 A3017 RMK A01 T02540178  RH  063%=      5-min Rain = 0
KBR1 150305Z 11007KT 25/18 A3017 RMK A01 T02540177  RH  062%=      5-min Rain = 0
KBR1 150306Z 11007KT 25/18 A3017 RMK A01 T02540178  RH  063%=      5-min Rain = 0
KBR1 150307Z 12007KT 25/18 A3017 RMK A01 T02540178  RH  063%=      5-min Rain = 0
KBR1 150308Z 12007KT 25/18 A3017 RMK A01 T02540177  RH  062%=      5-min Rain = 0
KBR1 150309Z 12007KT 25/18 A3017 RMK A01 T02540177  RH  062%=      5-min Rain = 0
KBR1 150310Z 12007KT 25/18 A3017 RMK A01 T02540177  RH  062%=      5-min Rain = 0
KBR1 150311Z 12007KT 25/18 A3017 RMK A01 T02540176  RH  062%=      5-min Rain = 0
KBR1 150312Z 12007KT 25/18 A3017 RMK A01 T02540177  RH  062%=      5-min Rain = 0
KBR1 150313Z 12007KT 26/18 A3017 RMK A01 T02550178  RH  062%=      5-min Rain = 0
KBR1 150314Z 12007KT 25/18 A3017 RMK A01 T02540177  RH  062%=      5-min Rain = 0
KBR1 150315Z 12007KT 25/18 A3017 RMK A01 T02540177  RH  062%=      5-min Rain = 0
KBR1 150316Z 12006KT 25/18 A3018 RMK A01 T02540178  RH  063%=      5-min Rain = 0
KBR1 150317Z 12006KT 25/18 A3018 RMK A01 T02540179  RH  063%=      5-min Rain = 0
KBR1 150318Z 13006KT 25/18 A3018 RMK A01 T02530179  RH  064%=      5-min Rain = 0
KBR1 150319Z 13005KT 25/18 A3018 RMK A01 T02530180  RH  064%=      5-min Rain = 0
KBR1 150320Z 13005KT 25/18 A3018 RMK A01 T02520183  RH  065%=      5-min Rain = 0
KBR1 150321Z 13005KT 25/18 A3018 RMK A01 T02510181  RH  065%=      5-min Rain = 0
KBR1 150322Z 13006KT 25/18 A3018 RMK A01 T02500181  RH  065%=      5-min Rain = 0
KBR1 150323Z 13006KT 25/18 A3018 RMK A01 T02500181  RH  065%=      5-min Rain = 0
KBR1 150324Z 13006KT 25/18 A3018 RMK A01 T02500183  RH  066%=      5-min Rain = 0
KBR1 150325Z 14006KT 25/18 A3018 RMK A01 T02500182  RH  066%=      5-min Rain = 0
KBR1 150326Z 13006KT 25/18 A3018 RMK A01 T02490183  RH  066%=      5-min Rain = 0
KBR1 150327Z 13006KT 25/18 A3018 RMK A01 T02490183  RH  067%=      5-min Rain = 0
KBR1 150328Z 13006KT 25/18 A3018 RMK A01 T02490183  RH  067%=      5-min Rain = 0
KBR1 150329Z 13006KT 25/18 A3018 RMK A01 T02490182  RH  067%=      5-min Rain = 0
KBR1 150330Z 13006KT 25/18 A3018 RMK A01 T02490182  RH  066%=      5-min Rain = 0
KBR1 150331Z 13006KT 25/18 A3018 RMK A01 T02490183  RH  067%=      5-min Rain = 0
KBR1 150332Z 13006KT 25/18 A3018 RMK A01 T02490183  RH  067%=      5-min Rain = 0
KBR1 150333Z 13006KT 25/18 A3018 RMK A01 T02490183  RH  067%=      5-min Rain = 0
KBR1 150334Z 13006KT 25/19 A3018 RMK A01 T02490185  RH  067%=      5-min Rain = 0
KBR1 150335Z 13006KT 25/19 A3018 RMK A01 T02480185  RH  068%=      5-min Rain = 0
KBR1 150336Z 13006KT 25/19 A3018 RMK A01 T02480186  RH  068%=      5-min Rain = 0
KBR1 150337Z 13005KT 25/19 A3018 RMK A01 T02470186  RH  069%=      5-min Rain = 0
KBR1 150338Z 14005KT 25/19 A3018 RMK A01 T02470186  RH  069%=      5-min Rain = 0
KBR1 150339Z 13005KT 25/19 A3018 RMK A01 T02460187  RH  070%=      5-min Rain = 0
KBR1 150340Z 13005KT 25/19 A3018 RMK A01 T02450187  RH  070%=      5-min Rain = 0
KBR1 150341Z 13005KT 25/19 A3018 RMK A01 T02450187  RH  070%=      5-min Rain = 0
KBR1 150342Z 13005KT 25/19 A3018 RMK A01 T02450188  RH  071%=      5-min Rain = 0
KBR1 150343Z 12005KT 24/19 A3018 RMK A01 T02440187  RH  070%=      5-min Rain = 0
KBR1 150344Z 13005KT 24/19 A3018 RMK A01 T02440187  RH  070%=      5-min Rain = 0
KBR1 150345Z 13005KT 24/19 A3018 RMK A01 T02440187  RH  070%=      5-min Rain = 0
KBR1 150346Z 13005KT 24/19 A3018 RMK A01 T02440186  RH  070%=      5-min Rain = 0
KBR1 150347Z 13005KT 24/19 A3018 RMK A01 T02440187  RH  070%=      5-min Rain = 0
KBR1 150348Z 12005KT 24/19 A3018 RMK A01 T02440188  RH  071%=      5-min Rain = 0
KBR1 150349Z 12005KT 24/19 A3018 RMK A01 T02440189  RH  071%=      5-min Rain = 0
KBR1 150350Z 12005KT 24/19 A3018 RMK A01 T02440189  RH  071%=      5-min Rain = 0
KBR1 150351Z 12006KT 24/19 A3018 RMK A01 T02440189  RH  071%=      5-min Rain = 0
KBR1 150352Z 12006KT 24/19 A3018 RMK A01 T02430188  RH  071%=      5-min Rain = 0
KBR1 150353Z 12006KT 24/19 A3018 RMK A01 T02440188  RH  071%=      5-min Rain = 0
KBR1 150354Z 12006KT 24/19 A3018 RMK A01 T02430188  RH  071%=      5-min Rain = 0
KBR1 150355Z 12006KT 24/19 A3018 RMK A01 T02430188  RH  071%=      5-min Rain = 0
KBR1 150356Z 12006KT 24/19 A3018 RMK A01 T02440188  RH  071%=      5-min Rain = 0
KBR1 150357Z 12006KT 24/19 A3018 RMK A01 T02430187  RH  071%=      5-min Rain = 0
KBR1 150358Z 12006KT 24/19 A3018 RMK A01 T02440186  RH  070%=      5-min Rain = 0
KBR1 150359Z 12006KT 24/19 A3018 RMK A01 T02440186  RH  070%=      5-min Rain = 0
KBR1 150400Z 12006KT 24/19 A3018 RMK A01 T02440185  RH  070%=      5-min Rain = 0
KBR1 150401Z 12006KT 25/19 A3018 RMK A01 T02450185  RH  069%=      5-min Rain = 0
KBR1 150402Z 12006KT 25/18 A3018 RMK A01 T02450184  RH  069%=      5-min Rain = 0
KBR1 150403Z 12006KT 25/18 A3018 RMK A01 T02450184  RH  069%=      5-min Rain = 0
KBR1 150404Z 12006KT 25/19 A3018 RMK A01 T02450185  RH  069%=      5-min Rain = 0
KBR1 150405Z 12006KT 25/18 A3018 RMK A01 T02450184  RH  069%=      5-min Rain = 0
KBR1 150406Z 12006KT 25/18 A3018 RMK A01 T02450183  RH  068%=      5-min Rain = 0
KBR1 150407Z 11006KT 25/18 A3018 RMK A01 T02450184  RH  069%=      5-min Rain = 0
KBR1 150408Z 11005KT 25/19 A3018 RMK A01 T02450185  RH  069%=      5-min Rain = 0
KBR1 150409Z 11005KT 25/19 A3018 RMK A01 T02450185  RH  069%=      5-min Rain = 0
KBR1 150410Z 11005KT 25/18 A3018 RMK A01 T02450184  RH  069%=      5-min Rain = 0
KBR1 150411Z 11005KT 25/19 A3018 RMK A01 T02450185  RH  069%=      5-min Rain = 0
KBR1 150412Z 10005KT 24/19 A3018 RMK A01 T02440185  RH  070%=      5-min Rain = 0
KBR1 150413Z 10005KT 24/19 A3018 RMK A01 T02430185  RH  070%=      5-min Rain = 0
KBR1 150414Z 10004KT 24/19 A3018 RMK A01 T02430185  RH  070%=      5-min Rain = 0
KBR1 150415Z 10004KT 24/19 A3018 RMK A01 T02430186  RH  071%=      5-min Rain = 0
KBR1 150416Z 10005KT 24/19 A3018 RMK A01 T02420185  RH  071%=      5-min Rain = 0
KBR1 150417Z 10005KT 24/19 A3018 RMK A01 T02410185  RH  071%=      5-min Rain = 0
KBR1 150418Z 10005KT 24/19 A3018 RMK A01 T02410186  RH  071%=      5-min Rain = 0
KBR1 150419Z 10005KT 24/19 A3018 RMK A01 T02410186  RH  071%=      5-min Rain = 0
KBR1 150420Z 10005KT 24/19 A3018 RMK A01 T02400187  RH  072%=      5-min Rain = 0
KBR1 150421Z 10005KT 24/19 A3018 RMK A01 T02390186  RH  072%=      5-min Rain = 0
KBR1 150422Z 11005KT 24/18 A3018 RMK A01 T02390184  RH  072%=      5-min Rain = 0
KBR1 150423Z 11005KT 24/19 A3018 RMK A01 T02390185  RH  072%=      5-min Rain = 0
KBR1 150424Z 11005KT 24/19 A3018 RMK A01 T02390185  RH  072%=      5-min Rain = 0
KBR1 150425Z 11005KT 24/18 A3018 RMK A01 T02390184  RH  071%=      5-min Rain = 0
KBR1 150426Z 11005KT 24/18 A3018 RMK A01 T02390184  RH  072%=      5-min Rain = 0
KBR1 150427Z 11005KT 24/18 A3018 RMK A01 T02390184  RH  072%=      5-min Rain = 0
KBR1 150428Z 11006KT 24/18 A3018 RMK A01 T02390183  RH  071%=      5-min Rain = 0
KBR1 150429Z 12006KT 24/18 A3018 RMK A01 T02390182  RH  070%=      5-min Rain = 0
KBR1 150430Z 12006KT 24/18 A3018 RMK A01 T02400182  RH  070%=      5-min Rain = 0
KBR1 150431Z 11006KT 24/18 A3018 RMK A01 T02410182  RH  070%=      5-min Rain = 0
KBR1 150432Z 11005KT 24/18 A3018 RMK A01 T02410181  RH  069%=      5-min Rain = 0
KBR1 150433Z 10005KT 24/18 A3018 RMK A01 T02410183  RH  070%=      5-min Rain = 0
KBR1 150434Z 10005KT 24/18 A3018 RMK A01 T02410183  RH  070%=      5-min Rain = 0
KBR1 150435Z 11005KT 24/18 A3018 RMK A01 T02400181  RH  069%=      5-min Rain = 0
KBR1 150436Z 12006KT 24/18 A3018 RMK A01 T02400178  RH  068%=      5-min Rain = 0
KBR1 150437Z 12006KT 24/18 A3018 RMK A01 T02410176  RH  067%=      5-min Rain = 0
KBR1 150438Z 11005KT 24/18 A3018 RMK A01 T02430176  RH  066%=      5-min Rain = 0
KBR1 150439Z 11005KT 24/18 A3018 RMK A01 T02430178  RH  067%=      5-min Rain = 0
KBR1 150440Z 10005KT 24/18 A3018 RMK A01 T02430177  RH  067%=      5-min Rain = 0
KBR1 150441Z 10005KT 24/18 A3018 RMK A01 T02430178  RH  067%=      5-min Rain = 0
KBR1 150442Z 10005KT 24/18 A3018 RMK A01 T02420178  RH  067%=      5-min Rain = 0
KBR1 150443Z 10006KT 24/18 A3018 RMK A01 T02420177  RH  067%=      5-min Rain = 0
KBR1 150444Z 09006KT 24/18 A3018 RMK A01 T02420176  RH  067%=      5-min Rain = 0
KBR1 150445Z 09006KT 24/18 A3018 RMK A01 T02420177  RH  067%=      5-min Rain = 0
KBR1 150446Z 09006KT 24/18 A3019 RMK A01 T02410177  RH  067%=      5-min Rain = 0
KBR1 150447Z 09007KT 24/18 A3019 RMK A01 T02410179  RH  069%=      5-min Rain = 0
KBR1 150448Z 09007KT 24/18 A3018 RMK A01 T02390179  RH  069%=      5-min Rain = 0
KBR1 150449Z 09007KT 24/18 A3018 RMK A01 T02380179  RH  069%=      5-min Rain = 0
KBR1 150450Z 08008KT 24/18 A3019 RMK A01 T02370179  RH  070%=      5-min Rain = 0
KBR1 150451Z 08008KT 24/18 A3019 RMK A01 T02370180  RH  070%=      5-min Rain = 0
KBR1 150452Z 09010KT 24/18 A3019 RMK A01 T02360180  RH  071%=      5-min Rain = 0
KBR1 150453Z 08008KT 24/18 A3019 RMK A01 T02350180  RH  071%=      5-min Rain = 0
KBR1 150454Z 08009KT 24/17 A3019 RMK A01 T02350174  RH  068%=      5-min Rain = 0
KBR1 150455Z 07008KT 24/17 A3019 RMK A01 T02390173  RH  067%=      5-min Rain = 0
KBR1 150456Z 07007KT 24/18 A3019 RMK A01 T02400178  RH  068%=      5-min Rain = 0
KBR1 150457Z 07007KT 24/18 A3019 RMK A01 T02390179  RH  069%=      5-min Rain = 0
KBR1 150458Z 07007KT 24/18 A3019 RMK A01 T02380179  RH  069%=      5-min Rain = 0
KBR1 150459Z 07007KT 24/18 A3019 RMK A01 T02370179  RH  070%=      5-min Rain = 0

Page generated in 0.1492 seconds.